<?xml version="1.0" encoding="UTF-8" standalone="no" ?>
<gpx xmlns="http://www.topografix.com/GPX/1/1" xmlns:xsi="http://www.w3.org/2001/XMLSchema-instance" xsi:schemaLocation="http://www.topografix.com/GPX/1/1 http://www.topografix.com/GPX/1/1/gpx.xsd" version="1.1" creator="VisuGPX - https://www.visugpx.com">
  <metadata>
    <name>2014-12-12 Crête du Fouda Blanc</name>
    <desc><![CDATA[Les Varvats, Pré de Pratcel, Pas de l\'Echelle, Crête du Fouda Blanc]]></desc>
  </metadata>
  <trk>
    <name><![CDATA[Crête du Fouda Blanc]]></name>
    <trkseg>
      <trkpt lat="45.41265" lon="5.88647">
        <ele>1065</ele>
        <time>2014-12-12T10:00:18Z</time>
      </trkpt>
      <trkpt lat="45.41268" lon="5.88651">
        <ele>1065</ele>
        <time>2014-12-12T10:00:25Z</time>
      </trkpt>
      <trkpt lat="45.41265" lon="5.88649">
        <ele>1065</ele>
        <time>2014-12-12T10:00:28Z</time>
      </trkpt>
      <trkpt lat="45.41265" lon="5.88647">
        <ele>1065</ele>
        <time>2014-12-12T10:00:35Z</time>
      </trkpt>
      <trkpt lat="45.41265" lon="5.88646">
        <ele>1031.983593899</ele>
        <time>2014-12-12T10:00:43Z</time>
      </trkpt>
      <trkpt lat="45.41266" lon="5.88647">
        <ele>1031.983593899</ele>
        <time>2014-12-12T10:00:43Z</time>
      </trkpt>
      <trkpt lat="45.41266" lon="5.88646">
        <ele>1031.983593899</ele>
        <time>2014-12-12T10:00:48Z</time>
      </trkpt>
      <trkpt lat="45.41266" lon="5.88646">
        <ele>1031.983593899</ele>
        <time>2014-12-12T10:00:53Z</time>
      </trkpt>
      <trkpt lat="45.41266" lon="5.88646">
        <ele>1031.983593899</ele>
        <time>2014-12-12T10:01:01Z</time>
      </trkpt>
      <trkpt lat="45.41266" lon="5.88646">
        <ele>1031.983593899</ele>
        <time>2014-12-12T10:01:04Z</time>
      </trkpt>
      <trkpt lat="45.41266" lon="5.88646">
        <ele>1031.983593899</ele>
        <time>2014-12-12T10:01:09Z</time>
      </trkpt>
      <trkpt lat="45.41266" lon="5.88646">
        <ele>1031.983593899</ele>
        <time>2014-12-12T10:01:14Z</time>
      </trkpt>
      <trkpt lat="45.41266" lon="5.88647">
        <ele>1031.983593899</ele>
        <time>2014-12-12T10:01:18Z</time>
      </trkpt>
      <trkpt lat="45.41265" lon="5.88646">
        <ele>1031.983593899</ele>
        <time>2014-12-12T10:01:27Z</time>
      </trkpt>
      <trkpt lat="45.41266" lon="5.88646">
        <ele>1031.983593899</ele>
        <time>2014-12-12T10:01:33Z</time>
      </trkpt>
      <trkpt lat="45.41262" lon="5.88647">
        <ele>1031.983593899</ele>
        <time>2014-12-12T10:01:54Z</time>
      </trkpt>
      <trkpt lat="45.41262" lon="5.88647">
        <ele>1031.983593899</ele>
        <time>2014-12-12T10:02:23Z</time>
      </trkpt>
      <trkpt lat="45.41262" lon="5.88648">
        <ele>1031.983593899</ele>
        <time>2014-12-12T10:03:00Z</time>
      </trkpt>
      <trkpt lat="45.41259" lon="5.88648">
        <ele>1039.919832348</ele>
        <time>2014-12-12T10:03:08Z</time>
      </trkpt>
      <trkpt lat="45.41238" lon="5.88683">
        <ele>1048.196205457</ele>
        <time>2014-12-12T10:03:24Z</time>
      </trkpt>
      <trkpt lat="45.41237" lon="5.88686">
        <ele>1048.196205457</ele>
        <time>2014-12-12T10:03:32Z</time>
      </trkpt>
      <trkpt lat="45.41228" lon="5.88705">
        <ele>1054.468961108</ele>
        <time>2014-12-12T10:03:41Z</time>
      </trkpt>
      <trkpt lat="45.41226" lon="5.88708">
        <ele>1054.468961108</ele>
        <time>2014-12-12T10:03:45Z</time>
      </trkpt>
      <trkpt lat="45.41222" lon="5.88712">
        <ele>1054.468961108</ele>
        <time>2014-12-12T10:03:51Z</time>
      </trkpt>
      <trkpt lat="45.41218" lon="5.88714">
        <ele>1058.409531414</ele>
        <time>2014-12-12T10:03:54Z</time>
      </trkpt>
      <trkpt lat="45.41212" lon="5.88717">
        <ele>1058.409531414</ele>
        <time>2014-12-12T10:04:00Z</time>
      </trkpt>
      <trkpt lat="45.41207" lon="5.88721">
        <ele>1062.047498075</ele>
        <time>2014-12-12T10:04:05Z</time>
      </trkpt>
      <trkpt lat="45.41204" lon="5.88725">
        <ele>1062.047498075</ele>
        <time>2014-12-12T10:04:09Z</time>
      </trkpt>
      <trkpt lat="45.41201" lon="5.88731">
        <ele>1065.673919123</ele>
        <time>2014-12-12T10:04:15Z</time>
      </trkpt>
      <trkpt lat="45.412" lon="5.88732">
        <ele>1065.673919123</ele>
        <time>2014-12-12T10:04:20Z</time>
      </trkpt>
      <trkpt lat="45.41193" lon="5.88743">
        <ele>1068.66706275</ele>
        <time>2014-12-12T10:04:30Z</time>
      </trkpt>
      <trkpt lat="45.41189" lon="5.88749">
        <ele>1068.66706275</ele>
        <time>2014-12-12T10:04:34Z</time>
      </trkpt>
      <trkpt lat="45.41184" lon="5.88768">
        <ele>1072.770527781</ele>
        <time>2014-12-12T10:04:45Z</time>
      </trkpt>
      <trkpt lat="45.4118" lon="5.8878">
        <ele>1075.587134515</ele>
        <time>2014-12-12T10:04:55Z</time>
      </trkpt>
      <trkpt lat="45.41176" lon="5.88786">
        <ele>1075.587134515</ele>
        <time>2014-12-12T10:04:59Z</time>
      </trkpt>
      <trkpt lat="45.41175" lon="5.8879">
        <ele>1075.587134515</ele>
        <time>2014-12-12T10:05:06Z</time>
      </trkpt>
      <trkpt lat="45.41173" lon="5.88793">
        <ele>1077.370909304</ele>
        <time>2014-12-12T10:05:09Z</time>
      </trkpt>
      <trkpt lat="45.41169" lon="5.88798">
        <ele>1077.370909304</ele>
        <time>2014-12-12T10:05:15Z</time>
      </trkpt>
      <trkpt lat="45.41168" lon="5.88804">
        <ele>1078.38982573</ele>
        <time>2014-12-12T10:05:18Z</time>
      </trkpt>
      <trkpt lat="45.41165" lon="5.88811">
        <ele>1078.38982573</ele>
        <time>2014-12-12T10:05:26Z</time>
      </trkpt>
      <trkpt lat="45.41163" lon="5.88811">
        <ele>1078.38982573</ele>
        <time>2014-12-12T10:05:30Z</time>
      </trkpt>
      <trkpt lat="45.41156" lon="5.88826">
        <ele>1079.92365241</ele>
        <time>2014-12-12T10:05:49Z</time>
      </trkpt>
      <trkpt lat="45.41152" lon="5.8884">
        <ele>1079.985350682</ele>
        <time>2014-12-12T10:06:07Z</time>
      </trkpt>
      <trkpt lat="45.41147" lon="5.88852">
        <ele>1079.938445556</ele>
        <time>2014-12-12T10:06:17Z</time>
      </trkpt>
      <trkpt lat="45.41143" lon="5.88857">
        <ele>1079.938445556</ele>
        <time>2014-12-12T10:06:18Z</time>
      </trkpt>
      <trkpt lat="45.41117" lon="5.88874">
        <ele>1081.011951084</ele>
        <time>2014-12-12T10:07:04Z</time>
      </trkpt>
      <trkpt lat="45.4107" lon="5.88921">
        <ele>1086.565044467</ele>
        <time>2014-12-12T10:08:20Z</time>
      </trkpt>
      <trkpt lat="45.41067" lon="5.88931">
        <ele>1086.565044467</ele>
        <time>2014-12-12T10:08:35Z</time>
      </trkpt>
      <trkpt lat="45.41067" lon="5.88932">
        <ele>1086.565044467</ele>
        <time>2014-12-12T10:08:43Z</time>
      </trkpt>
      <trkpt lat="45.41063" lon="5.88947">
        <ele>1091.599797745</ele>
        <time>2014-12-12T10:08:52Z</time>
      </trkpt>
      <trkpt lat="45.41058" lon="5.88952">
        <ele>1091.599797745</ele>
        <time>2014-12-12T10:08:53Z</time>
      </trkpt>
      <trkpt lat="45.41058" lon="5.88955">
        <ele>1091.599797745</ele>
        <time>2014-12-12T10:09:00Z</time>
      </trkpt>
      <trkpt lat="45.41053" lon="5.89013">
        <ele>1092.991696579</ele>
        <time>2014-12-12T10:09:39Z</time>
      </trkpt>
      <trkpt lat="45.41052" lon="5.89018">
        <ele>1092.991696579</ele>
        <time>2014-12-12T10:09:47Z</time>
      </trkpt>
      <trkpt lat="45.41051" lon="5.89034">
        <ele>1093.37273767</ele>
        <time>2014-12-12T10:09:55Z</time>
      </trkpt>
      <trkpt lat="45.41051" lon="5.89043">
        <ele>1093.37273767</ele>
        <time>2014-12-12T10:09:59Z</time>
      </trkpt>
      <trkpt lat="45.41048" lon="5.89056">
        <ele>1093.344336475</ele>
        <time>2014-12-12T10:10:06Z</time>
      </trkpt>
      <trkpt lat="45.41047" lon="5.89073">
        <ele>1093.27520555</ele>
        <time>2014-12-12T10:10:15Z</time>
      </trkpt>
      <trkpt lat="45.41049" lon="5.89094">
        <ele>1093.631691856</ele>
        <time>2014-12-12T10:10:24Z</time>
      </trkpt>
      <trkpt lat="45.41046" lon="5.89108">
        <ele>1095.259351085</ele>
        <time>2014-12-12T10:10:29Z</time>
      </trkpt>
      <trkpt lat="45.41045" lon="5.89113">
        <ele>1095.259351085</ele>
        <time>2014-12-12T10:10:36Z</time>
      </trkpt>
      <trkpt lat="45.41045" lon="5.89119">
        <ele>1095.259351085</ele>
        <time>2014-12-12T10:10:39Z</time>
      </trkpt>
      <trkpt lat="45.41041" lon="5.89119">
        <ele>1097.584679955</ele>
        <time>2014-12-12T10:10:47Z</time>
      </trkpt>
      <trkpt lat="45.41039" lon="5.89122">
        <ele>1097.584679955</ele>
        <time>2014-12-12T10:10:49Z</time>
      </trkpt>
      <trkpt lat="45.41039" lon="5.89122">
        <ele>1097.584679955</ele>
        <time>2014-12-12T10:10:54Z</time>
      </trkpt>
      <trkpt lat="45.41039" lon="5.89123">
        <ele>1097.584679955</ele>
        <time>2014-12-12T10:11:00Z</time>
      </trkpt>
      <trkpt lat="45.41039" lon="5.89123">
        <ele>1097.584679955</ele>
        <time>2014-12-12T10:11:04Z</time>
      </trkpt>
      <trkpt lat="45.41039" lon="5.89123">
        <ele>1097.584679955</ele>
        <time>2014-12-12T10:11:09Z</time>
      </trkpt>
      <trkpt lat="45.41039" lon="5.89123">
        <ele>1097.584679955</ele>
        <time>2014-12-12T10:11:15Z</time>
      </trkpt>
      <trkpt lat="45.41039" lon="5.89123">
        <ele>1097.584679955</ele>
        <time>2014-12-12T10:11:20Z</time>
      </trkpt>
      <trkpt lat="45.41037" lon="5.89133">
        <ele>1100.389841971</ele>
        <time>2014-12-12T10:11:34Z</time>
      </trkpt>
      <trkpt lat="45.41035" lon="5.89139">
        <ele>1100.389841971</ele>
        <time>2014-12-12T10:11:40Z</time>
      </trkpt>
      <trkpt lat="45.41026" lon="5.89155">
        <ele>1102.627605011</ele>
        <time>2014-12-12T10:11:55Z</time>
      </trkpt>
      <trkpt lat="45.41022" lon="5.89157">
        <ele>1102.627605011</ele>
        <time>2014-12-12T10:12:00Z</time>
      </trkpt>
      <trkpt lat="45.41018" lon="5.89162">
        <ele>1104.633023883</ele>
        <time>2014-12-12T10:12:05Z</time>
      </trkpt>
      <trkpt lat="45.4101" lon="5.8917">
        <ele>1106.004344255</ele>
        <time>2014-12-12T10:12:09Z</time>
      </trkpt>
      <trkpt lat="45.41009" lon="5.89172">
        <ele>1106.004344255</ele>
        <time>2014-12-12T10:12:16Z</time>
      </trkpt>
      <trkpt lat="45.41" lon="5.89183">
        <ele>1106.375545381</ele>
        <time>2014-12-12T10:12:18Z</time>
      </trkpt>
      <trkpt lat="45.40996" lon="5.89189">
        <ele>1106.375545381</ele>
        <time>2014-12-12T10:12:29Z</time>
      </trkpt>
      <trkpt lat="45.40991" lon="5.89202">
        <ele>1105.270006069</ele>
        <time>2014-12-12T10:12:36Z</time>
      </trkpt>
      <trkpt lat="45.40971" lon="5.89225">
        <ele>1102.799805302</ele>
        <time>2014-12-12T10:13:00Z</time>
      </trkpt>
      <trkpt lat="45.40964" lon="5.89232">
        <ele>1102.799805302</ele>
        <time>2014-12-12T10:13:06Z</time>
      </trkpt>
      <trkpt lat="45.40935" lon="5.89254">
        <ele>1098.78648772</ele>
        <time>2014-12-12T10:13:29Z</time>
      </trkpt>
      <trkpt lat="45.40933" lon="5.89255">
        <ele>1098.78648772</ele>
        <time>2014-12-12T10:13:36Z</time>
      </trkpt>
      <trkpt lat="45.40929" lon="5.89264">
        <ele>1094.17365124</ele>
        <time>2014-12-12T10:13:47Z</time>
      </trkpt>
      <trkpt lat="45.40885" lon="5.89379">
        <ele>1087.61237593</ele>
        <time>2014-12-12T10:15:05Z</time>
      </trkpt>
      <trkpt lat="45.40883" lon="5.89381">
        <ele>1087.61237593</ele>
        <time>2014-12-12T10:15:10Z</time>
      </trkpt>
      <trkpt lat="45.40883" lon="5.89403">
        <ele>1081.199757396</ele>
        <time>2014-12-12T10:15:14Z</time>
      </trkpt>
      <trkpt lat="45.40879" lon="5.8941">
        <ele>1081.199757396</ele>
        <time>2014-12-12T10:15:19Z</time>
      </trkpt>
      <trkpt lat="45.40876" lon="5.89422">
        <ele>1075.791066144</ele>
        <time>2014-12-12T10:15:25Z</time>
      </trkpt>
      <trkpt lat="45.40875" lon="5.8943">
        <ele>1075.791066144</ele>
        <time>2014-12-12T10:15:30Z</time>
      </trkpt>
      <trkpt lat="45.40876" lon="5.89439">
        <ele>1070.63976206</ele>
        <time>2014-12-12T10:15:35Z</time>
      </trkpt>
      <trkpt lat="45.40874" lon="5.89449">
        <ele>1070.63976206</ele>
        <time>2014-12-12T10:15:39Z</time>
      </trkpt>
      <trkpt lat="45.40869" lon="5.89457">
        <ele>1065.75400905</ele>
        <time>2014-12-12T10:15:46Z</time>
      </trkpt>
      <trkpt lat="45.40862" lon="5.89473">
        <ele>1061.430361559</ele>
        <time>2014-12-12T10:15:53Z</time>
      </trkpt>
      <trkpt lat="45.40857" lon="5.89484">
        <ele>1058.239340591</ele>
        <time>2014-12-12T10:16:00Z</time>
      </trkpt>
      <trkpt lat="45.40803" lon="5.8951">
        <ele>1059.341156915</ele>
        <time>2014-12-12T10:17:00Z</time>
      </trkpt>
      <trkpt lat="45.40706" lon="5.89529">
        <ele>1063.021221208</ele>
        <time>2014-12-12T10:18:04Z</time>
      </trkpt>
      <trkpt lat="45.40568" lon="5.89514">
        <ele>1069.704257816</ele>
        <time>2014-12-12T10:20:00Z</time>
      </trkpt>
      <trkpt lat="45.40558" lon="5.89519">
        <ele>1075.175986281</ele>
        <time>2014-12-12T10:20:11Z</time>
      </trkpt>
      <trkpt lat="45.40527" lon="5.89551">
        <ele>1078.59695451</ele>
        <time>2014-12-12T10:21:08Z</time>
      </trkpt>
      <trkpt lat="45.40514" lon="5.89557">
        <ele>1082.631112363</ele>
        <time>2014-12-12T10:21:18Z</time>
      </trkpt>
      <trkpt lat="45.40457" lon="5.89682">
        <ele>1082.870909284</ele>
        <time>2014-12-12T10:22:58Z</time>
      </trkpt>
      <trkpt lat="45.40433" lon="5.89766">
        <ele>1082.89110518</ele>
        <time>2014-12-12T10:23:53Z</time>
      </trkpt>
      <trkpt lat="45.4043" lon="5.89777">
        <ele>1082.89110518</ele>
        <time>2014-12-12T10:24:00Z</time>
      </trkpt>
      <trkpt lat="45.40417" lon="5.89808">
        <ele>1083.766251679</ele>
        <time>2014-12-12T10:24:23Z</time>
      </trkpt>
      <trkpt lat="45.40416" lon="5.89821">
        <ele>1084.981380662</ele>
        <time>2014-12-12T10:24:40Z</time>
      </trkpt>
      <trkpt lat="45.40415" lon="5.8983">
        <ele>1084.981380662</ele>
        <time>2014-12-12T10:24:51Z</time>
      </trkpt>
      <trkpt lat="45.40404" lon="5.89849">
        <ele>1088.321239536</ele>
        <time>2014-12-12T10:24:59Z</time>
      </trkpt>
      <trkpt lat="45.40404" lon="5.8985">
        <ele>1088.321239536</ele>
        <time>2014-12-12T10:25:05Z</time>
      </trkpt>
      <trkpt lat="45.40404" lon="5.8985">
        <ele>1088.321239536</ele>
        <time>2014-12-12T10:25:15Z</time>
      </trkpt>
      <trkpt lat="45.40404" lon="5.8985">
        <ele>1088.321239536</ele>
        <time>2014-12-12T10:25:20Z</time>
      </trkpt>
      <trkpt lat="45.40404" lon="5.8985">
        <ele>1088.321239536</ele>
        <time>2014-12-12T10:25:25Z</time>
      </trkpt>
      <trkpt lat="45.40404" lon="5.8985">
        <ele>1088.321239536</ele>
        <time>2014-12-12T10:25:34Z</time>
      </trkpt>
      <trkpt lat="45.40404" lon="5.89851">
        <ele>1088.321239536</ele>
        <time>2014-12-12T10:25:41Z</time>
      </trkpt>
      <trkpt lat="45.40403" lon="5.89851">
        <ele>1088.321239536</ele>
        <time>2014-12-12T10:25:45Z</time>
      </trkpt>
      <trkpt lat="45.40403" lon="5.89851">
        <ele>1088.321239536</ele>
        <time>2014-12-12T10:25:49Z</time>
      </trkpt>
      <trkpt lat="45.40397" lon="5.89852">
        <ele>1088.321239536</ele>
        <time>2014-12-12T10:25:55Z</time>
      </trkpt>
      <trkpt lat="45.40398" lon="5.89858">
        <ele>1092.406390909</ele>
        <time>2014-12-12T10:26:00Z</time>
      </trkpt>
      <trkpt lat="45.40389" lon="5.89877">
        <ele>1097.468397181</ele>
        <time>2014-12-12T10:26:19Z</time>
      </trkpt>
      <trkpt lat="45.40388" lon="5.89878">
        <ele>1097.468397181</ele>
        <time>2014-12-12T10:26:26Z</time>
      </trkpt>
      <trkpt lat="45.4037" lon="5.89938">
        <ele>1104.168728845</ele>
        <time>2014-12-12T10:27:27Z</time>
      </trkpt>
      <trkpt lat="45.40366" lon="5.89956">
        <ele>1110.550319407</ele>
        <time>2014-12-12T10:27:45Z</time>
      </trkpt>
      <trkpt lat="45.40361" lon="5.89962">
        <ele>1110.550319407</ele>
        <time>2014-12-12T10:27:53Z</time>
      </trkpt>
      <trkpt lat="45.4036" lon="5.89965">
        <ele>1117.371941222</ele>
        <time>2014-12-12T10:28:00Z</time>
      </trkpt>
      <trkpt lat="45.40352" lon="5.90032">
        <ele>1125.629202317</ele>
        <time>2014-12-12T10:29:21Z</time>
      </trkpt>
      <trkpt lat="45.40347" lon="5.90052">
        <ele>1133.985880685</ele>
        <time>2014-12-12T10:29:38Z</time>
      </trkpt>
      <trkpt lat="45.40346" lon="5.90074">
        <ele>1141.516689983</ele>
        <time>2014-12-12T10:30:06Z</time>
      </trkpt>
      <trkpt lat="45.40342" lon="5.90099">
        <ele>1150.654360634</ele>
        <time>2014-12-12T10:30:54Z</time>
      </trkpt>
      <trkpt lat="45.40342" lon="5.90099">
        <ele>1150.654360634</ele>
        <time>2014-12-12T10:31:00Z</time>
      </trkpt>
      <trkpt lat="45.40342" lon="5.90118">
        <ele>1160.354196423</ele>
        <time>2014-12-12T10:31:23Z</time>
      </trkpt>
      <trkpt lat="45.40327" lon="5.90152">
        <ele>1170.992394711</ele>
        <time>2014-12-12T10:32:24Z</time>
      </trkpt>
      <trkpt lat="45.40327" lon="5.90198">
        <ele>1181.729092263</ele>
        <time>2014-12-12T10:33:09Z</time>
      </trkpt>
      <trkpt lat="45.40323" lon="5.90247">
        <ele>1193.41749118</ele>
        <time>2014-12-12T10:34:00Z</time>
      </trkpt>
      <trkpt lat="45.40321" lon="5.90251">
        <ele>1193.41749118</ele>
        <time>2014-12-12T10:34:06Z</time>
      </trkpt>
      <trkpt lat="45.40332" lon="5.90281">
        <ele>1207.13204372</ele>
        <time>2014-12-12T10:35:05Z</time>
      </trkpt>
      <trkpt lat="45.40351" lon="5.90308">
        <ele>1221.945499894</ele>
        <time>2014-12-12T10:36:08Z</time>
      </trkpt>
      <trkpt lat="45.40352" lon="5.90316">
        <ele>1221.945499894</ele>
        <time>2014-12-12T10:36:18Z</time>
      </trkpt>
      <trkpt lat="45.40356" lon="5.90333">
        <ele>1236.419502216</ele>
        <time>2014-12-12T10:37:00Z</time>
      </trkpt>
      <trkpt lat="45.40362" lon="5.90427">
        <ele>1252.158666096</ele>
        <time>2014-12-12T10:38:53Z</time>
      </trkpt>
      <trkpt lat="45.40361" lon="5.90431">
        <ele>1252.158666096</ele>
        <time>2014-12-12T10:39:00Z</time>
      </trkpt>
      <trkpt lat="45.40364" lon="5.90435">
        <ele>1252.158666096</ele>
        <time>2014-12-12T10:39:08Z</time>
      </trkpt>
      <trkpt lat="45.40367" lon="5.90453">
        <ele>1266.695214577</ele>
        <time>2014-12-12T10:39:41Z</time>
      </trkpt>
      <trkpt lat="45.40367" lon="5.90452">
        <ele>1266.695214577</ele>
        <time>2014-12-12T10:39:43Z</time>
      </trkpt>
      <trkpt lat="45.40368" lon="5.90455">
        <ele>1266.695214577</ele>
        <time>2014-12-12T10:39:54Z</time>
      </trkpt>
      <trkpt lat="45.40368" lon="5.90455">
        <ele>1266.695214577</ele>
        <time>2014-12-12T10:39:59Z</time>
      </trkpt>
      <trkpt lat="45.40346" lon="5.90514">
        <ele>1286.503259519</ele>
        <time>2014-12-12T10:43:00Z</time>
      </trkpt>
      <trkpt lat="45.40331" lon="5.90516">
        <ele>1305.020131468</ele>
        <time>2014-12-12T10:44:07Z</time>
      </trkpt>
      <trkpt lat="45.40351" lon="5.90552">
        <ele>1324.486500909</ele>
        <time>2014-12-12T10:46:00Z</time>
      </trkpt>
      <trkpt lat="45.40351" lon="5.90552">
        <ele>1324.486500909</ele>
        <time>2014-12-12T10:46:05Z</time>
      </trkpt>
      <trkpt lat="45.40352" lon="5.90553">
        <ele>1324.486500909</ele>
        <time>2014-12-12T10:46:10Z</time>
      </trkpt>
      <trkpt lat="45.40358" lon="5.90569">
        <ele>1341.743201112</ele>
        <time>2014-12-12T10:46:20Z</time>
      </trkpt>
      <trkpt lat="45.40376" lon="5.90587">
        <ele>1359.678947092</ele>
        <time>2014-12-12T10:47:23Z</time>
      </trkpt>
      <trkpt lat="45.40396" lon="5.90621">
        <ele>1375.60168751</ele>
        <time>2014-12-12T10:48:24Z</time>
      </trkpt>
      <trkpt lat="45.40397" lon="5.9063">
        <ele>1375.60168751</ele>
        <time>2014-12-12T10:48:49Z</time>
      </trkpt>
      <trkpt lat="45.40397" lon="5.9063">
        <ele>1375.60168751</ele>
        <time>2014-12-12T10:49:00Z</time>
      </trkpt>
      <trkpt lat="45.40397" lon="5.9063">
        <ele>1375.60168751</ele>
        <time>2014-12-12T10:49:04Z</time>
      </trkpt>
      <trkpt lat="45.40403" lon="5.90643">
        <ele>1391.370779596</ele>
        <time>2014-12-12T10:49:23Z</time>
      </trkpt>
      <trkpt lat="45.40411" lon="5.90679">
        <ele>1406.969925076</ele>
        <time>2014-12-12T10:50:23Z</time>
      </trkpt>
      <trkpt lat="45.40414" lon="5.90686">
        <ele>1406.969925076</ele>
        <time>2014-12-12T10:50:34Z</time>
      </trkpt>
      <trkpt lat="45.4042" lon="5.90702">
        <ele>1421.807570092</ele>
        <time>2014-12-12T10:51:00Z</time>
      </trkpt>
      <trkpt lat="45.40421" lon="5.90702">
        <ele>1421.807570092</ele>
        <time>2014-12-12T10:51:05Z</time>
      </trkpt>
      <trkpt lat="45.40422" lon="5.90709">
        <ele>1421.807570092</ele>
        <time>2014-12-12T10:51:18Z</time>
      </trkpt>
      <trkpt lat="45.40431" lon="5.9074">
        <ele>1436.494457761</ele>
        <time>2014-12-12T10:52:00Z</time>
      </trkpt>
      <trkpt lat="45.40433" lon="5.90744">
        <ele>1436.494457761</ele>
        <time>2014-12-12T10:52:06Z</time>
      </trkpt>
      <trkpt lat="45.40436" lon="5.90767">
        <ele>1450.00926831</ele>
        <time>2014-12-12T10:52:23Z</time>
      </trkpt>
      <trkpt lat="45.40461" lon="5.90816">
        <ele>1461.699534581</ele>
        <time>2014-12-12T10:53:23Z</time>
      </trkpt>
      <trkpt lat="45.40467" lon="5.9083">
        <ele>1471.832308344</ele>
        <time>2014-12-12T10:53:52Z</time>
      </trkpt>
      <trkpt lat="45.40467" lon="5.9083">
        <ele>1471.832308344</ele>
        <time>2014-12-12T10:53:53Z</time>
      </trkpt>
      <trkpt lat="45.40467" lon="5.90831">
        <ele>1471.832308344</ele>
        <time>2014-12-12T10:54:00Z</time>
      </trkpt>
      <trkpt lat="45.40467" lon="5.90831">
        <ele>1471.832308344</ele>
        <time>2014-12-12T10:54:05Z</time>
      </trkpt>
      <trkpt lat="45.40467" lon="5.90831">
        <ele>1471.832308344</ele>
        <time>2014-12-12T10:54:24Z</time>
      </trkpt>
      <trkpt lat="45.40467" lon="5.90833">
        <ele>1471.832308344</ele>
        <time>2014-12-12T10:54:40Z</time>
      </trkpt>
      <trkpt lat="45.40467" lon="5.90833">
        <ele>1471.832308344</ele>
        <time>2014-12-12T10:54:44Z</time>
      </trkpt>
      <trkpt lat="45.40467" lon="5.90833">
        <ele>1471.832308344</ele>
        <time>2014-12-12T10:54:50Z</time>
      </trkpt>
      <trkpt lat="45.40467" lon="5.90833">
        <ele>1471.832308344</ele>
        <time>2014-12-12T10:54:59Z</time>
      </trkpt>
      <trkpt lat="45.40467" lon="5.90833">
        <ele>1471.832308344</ele>
        <time>2014-12-12T10:55:09Z</time>
      </trkpt>
      <trkpt lat="45.40479" lon="5.90852">
        <ele>1481.669109272</ele>
        <time>2014-12-12T10:55:32Z</time>
      </trkpt>
      <trkpt lat="45.40542" lon="5.90984">
        <ele>1490.793650592</ele>
        <time>2014-12-12T10:58:00Z</time>
      </trkpt>
      <trkpt lat="45.40552" lon="5.90997">
        <ele>1498.823225067</ele>
        <time>2014-12-12T10:59:06Z</time>
      </trkpt>
      <trkpt lat="45.40552" lon="5.90996">
        <ele>1498.823225067</ele>
        <time>2014-12-12T10:59:16Z</time>
      </trkpt>
      <trkpt lat="45.40553" lon="5.90997">
        <ele>1498.823225067</ele>
        <time>2014-12-12T11:00:09Z</time>
      </trkpt>
      <trkpt lat="45.40554" lon="5.90999">
        <ele>1498.823225067</ele>
        <time>2014-12-12T11:00:53Z</time>
      </trkpt>
      <trkpt lat="45.40554" lon="5.91">
        <ele>1498.823225067</ele>
        <time>2014-12-12T11:01:00Z</time>
      </trkpt>
      <trkpt lat="45.40605" lon="5.91063">
        <ele>1505.839671975</ele>
        <time>2014-12-12T11:03:05Z</time>
      </trkpt>
      <trkpt lat="45.40608" lon="5.91071">
        <ele>1505.839671975</ele>
        <time>2014-12-12T11:03:10Z</time>
      </trkpt>
      <trkpt lat="45.40632" lon="5.91077">
        <ele>1513.075782024</ele>
        <time>2014-12-12T11:04:00Z</time>
      </trkpt>
      <trkpt lat="45.40686" lon="5.91192">
        <ele>1521.5297448</ele>
        <time>2014-12-12T11:06:18Z</time>
      </trkpt>
      <trkpt lat="45.40703" lon="5.91217">
        <ele>1528.951720036</ele>
        <time>2014-12-12T11:06:53Z</time>
      </trkpt>
      <trkpt lat="45.40706" lon="5.91223">
        <ele>1528.951720036</ele>
        <time>2014-12-12T11:07:06Z</time>
      </trkpt>
      <trkpt lat="45.40733" lon="5.91252">
        <ele>1536.000089291</ele>
        <time>2014-12-12T11:08:20Z</time>
      </trkpt>
      <trkpt lat="45.40733" lon="5.91252">
        <ele>1536.000089291</ele>
        <time>2014-12-12T11:08:25Z</time>
      </trkpt>
      <trkpt lat="45.40733" lon="5.91252">
        <ele>1536.000089291</ele>
        <time>2014-12-12T11:08:29Z</time>
      </trkpt>
      <trkpt lat="45.40743" lon="5.9127">
        <ele>1541.411907559</ele>
        <time>2014-12-12T11:08:53Z</time>
      </trkpt>
      <trkpt lat="45.40744" lon="5.91272">
        <ele>1541.411907559</ele>
        <time>2014-12-12T11:09:00Z</time>
      </trkpt>
      <trkpt lat="45.40748" lon="5.91281">
        <ele>1545.463994646</ele>
        <time>2014-12-12T11:09:08Z</time>
      </trkpt>
      <trkpt lat="45.40776" lon="5.91293">
        <ele>1550.436170796</ele>
        <time>2014-12-12T11:09:40Z</time>
      </trkpt>
      <trkpt lat="45.40778" lon="5.91292">
        <ele>1550.436170796</ele>
        <time>2014-12-12T11:09:55Z</time>
      </trkpt>
      <trkpt lat="45.40778" lon="5.91292">
        <ele>1550.436170796</ele>
        <time>2014-12-12T11:09:59Z</time>
      </trkpt>
      <trkpt lat="45.40778" lon="5.91292">
        <ele>1550.436170796</ele>
        <time>2014-12-12T11:10:06Z</time>
      </trkpt>
      <trkpt lat="45.40779" lon="5.9129">
        <ele>1550.436170796</ele>
        <time>2014-12-12T11:10:09Z</time>
      </trkpt>
      <trkpt lat="45.40798" lon="5.9128">
        <ele>1555.986960512</ele>
        <time>2014-12-12T11:11:06Z</time>
      </trkpt>
      <trkpt lat="45.40807" lon="5.91286">
        <ele>1560.356201336</ele>
        <time>2014-12-12T11:11:08Z</time>
      </trkpt>
      <trkpt lat="45.4081" lon="5.91293">
        <ele>1560.356201336</ele>
        <time>2014-12-12T11:11:16Z</time>
      </trkpt>
      <trkpt lat="45.40811" lon="5.91293">
        <ele>1560.356201336</ele>
        <time>2014-12-12T11:11:25Z</time>
      </trkpt>
      <trkpt lat="45.40831" lon="5.91314">
        <ele>1564.512666827</ele>
        <time>2014-12-12T11:11:59Z</time>
      </trkpt>
      <trkpt lat="45.40833" lon="5.9131">
        <ele>1564.512666827</ele>
        <time>2014-12-12T11:12:05Z</time>
      </trkpt>
      <trkpt lat="45.4084" lon="5.91288">
        <ele>1567.912315377</ele>
        <time>2014-12-12T11:12:32Z</time>
      </trkpt>
      <trkpt lat="45.40842" lon="5.9127">
        <ele>1570.19748204</ele>
        <time>2014-12-12T11:12:48Z</time>
      </trkpt>
      <trkpt lat="45.40842" lon="5.91229">
        <ele>1573.059330343</ele>
        <time>2014-12-12T11:13:23Z</time>
      </trkpt>
      <trkpt lat="45.40839" lon="5.91217">
        <ele>1575.466590586</ele>
        <time>2014-12-12T11:14:07Z</time>
      </trkpt>
      <trkpt lat="45.40839" lon="5.91215">
        <ele>1575.466590586</ele>
        <time>2014-12-12T11:14:23Z</time>
      </trkpt>
      <trkpt lat="45.40838" lon="5.91204">
        <ele>1575.466590586</ele>
        <time>2014-12-12T11:14:54Z</time>
      </trkpt>
      <trkpt lat="45.40838" lon="5.91203">
        <ele>1577.330400028</ele>
        <time>2014-12-12T11:15:00Z</time>
      </trkpt>
      <trkpt lat="45.40842" lon="5.91167">
        <ele>1579.579423679</ele>
        <time>2014-12-12T11:15:45Z</time>
      </trkpt>
      <trkpt lat="45.40849" lon="5.91163">
        <ele>1579.579423679</ele>
        <time>2014-12-12T11:15:54Z</time>
      </trkpt>
      <trkpt lat="45.40854" lon="5.9117">
        <ele>1581.197567733</ele>
        <time>2014-12-12T11:15:58Z</time>
      </trkpt>
      <trkpt lat="45.40865" lon="5.91168">
        <ele>1582.398835481</ele>
        <time>2014-12-12T11:16:24Z</time>
      </trkpt>
      <trkpt lat="45.40878" lon="5.91164">
        <ele>1584.824518349</ele>
        <time>2014-12-12T11:17:23Z</time>
      </trkpt>
      <trkpt lat="45.40898" lon="5.91181">
        <ele>1587.395251536</ele>
        <time>2014-12-12T11:18:23Z</time>
      </trkpt>
      <trkpt lat="45.40913" lon="5.91191">
        <ele>1590.119805187</ele>
        <time>2014-12-12T11:18:52Z</time>
      </trkpt>
      <trkpt lat="45.40911" lon="5.91193">
        <ele>1590.119805187</ele>
        <time>2014-12-12T11:19:00Z</time>
      </trkpt>
      <trkpt lat="45.40949" lon="5.91223">
        <ele>1594.735848158</ele>
        <time>2014-12-12T11:21:18Z</time>
      </trkpt>
      <trkpt lat="45.40954" lon="5.91233">
        <ele>1594.735848158</ele>
        <time>2014-12-12T11:22:00Z</time>
      </trkpt>
      <trkpt lat="45.40957" lon="5.91235">
        <ele>1599.530738963</ele>
        <time>2014-12-12T11:22:06Z</time>
      </trkpt>
      <trkpt lat="45.40973" lon="5.9124">
        <ele>1604.503111811</ele>
        <time>2014-12-12T11:23:05Z</time>
      </trkpt>
      <trkpt lat="45.40969" lon="5.91238">
        <ele>1604.503111811</ele>
        <time>2014-12-12T11:23:10Z</time>
      </trkpt>
      <trkpt lat="45.40967" lon="5.91235">
        <ele>1604.503111811</ele>
        <time>2014-12-12T11:23:20Z</time>
      </trkpt>
      <trkpt lat="45.40968" lon="5.91232">
        <ele>1609.362367829</ele>
        <time>2014-12-12T11:23:24Z</time>
      </trkpt>
      <trkpt lat="45.40974" lon="5.91222">
        <ele>1613.694987726</ele>
        <time>2014-12-12T11:23:53Z</time>
      </trkpt>
      <trkpt lat="45.40975" lon="5.91222">
        <ele>1613.694987726</ele>
        <time>2014-12-12T11:24:00Z</time>
      </trkpt>
      <trkpt lat="45.40974" lon="5.91221">
        <ele>1613.694987726</ele>
        <time>2014-12-12T11:24:07Z</time>
      </trkpt>
      <trkpt lat="45.40981" lon="5.91208">
        <ele>1618.416416408</ele>
        <time>2014-12-12T11:24:40Z</time>
      </trkpt>
      <trkpt lat="45.40985" lon="5.91199">
        <ele>1618.416416408</ele>
        <time>2014-12-12T11:24:59Z</time>
      </trkpt>
      <trkpt lat="45.40985" lon="5.91196">
        <ele>1623.940641353</ele>
        <time>2014-12-12T11:25:06Z</time>
      </trkpt>
      <trkpt lat="45.40986" lon="5.91196">
        <ele>1623.940641353</ele>
        <time>2014-12-12T11:25:08Z</time>
      </trkpt>
      <trkpt lat="45.41004" lon="5.91175">
        <ele>1629.351080419</ele>
        <time>2014-12-12T11:26:03Z</time>
      </trkpt>
      <trkpt lat="45.41006" lon="5.91174">
        <ele>1629.351080419</ele>
        <time>2014-12-12T11:26:19Z</time>
      </trkpt>
      <trkpt lat="45.41006" lon="5.91167">
        <ele>1629.351080419</ele>
        <time>2014-12-12T11:26:26Z</time>
      </trkpt>
      <trkpt lat="45.41016" lon="5.91147">
        <ele>1635.095842362</ele>
        <time>2014-12-12T11:27:11Z</time>
      </trkpt>
      <trkpt lat="45.41022" lon="5.91138">
        <ele>1635.095842362</ele>
        <time>2014-12-12T11:28:00Z</time>
      </trkpt>
      <trkpt lat="45.41022" lon="5.91138">
        <ele>1635.095842362</ele>
        <time>2014-12-12T11:28:09Z</time>
      </trkpt>
      <trkpt lat="45.41022" lon="5.91138">
        <ele>1640.723823665</ele>
        <time>2014-12-12T11:29:05Z</time>
      </trkpt>
      <trkpt lat="45.41022" lon="5.91138">
        <ele>1640.723823665</ele>
        <time>2014-12-12T11:29:10Z</time>
      </trkpt>
      <trkpt lat="45.41022" lon="5.91138">
        <ele>1640.723823665</ele>
        <time>2014-12-12T11:29:15Z</time>
      </trkpt>
      <trkpt lat="45.41022" lon="5.91138">
        <ele>1640.723823665</ele>
        <time>2014-12-12T11:29:20Z</time>
      </trkpt>
      <trkpt lat="45.41022" lon="5.91138">
        <ele>1640.723823665</ele>
        <time>2014-12-12T11:29:24Z</time>
      </trkpt>
      <trkpt lat="45.41022" lon="5.91138">
        <ele>1640.723823665</ele>
        <time>2014-12-12T11:29:30Z</time>
      </trkpt>
      <trkpt lat="45.41022" lon="5.91138">
        <ele>1640.723823665</ele>
        <time>2014-12-12T11:29:34Z</time>
      </trkpt>
      <trkpt lat="45.41022" lon="5.91138">
        <ele>1640.723823665</ele>
        <time>2014-12-12T11:29:48Z</time>
      </trkpt>
      <trkpt lat="45.41022" lon="5.91138">
        <ele>1640.723823665</ele>
        <time>2014-12-12T11:29:53Z</time>
      </trkpt>
      <trkpt lat="45.41022" lon="5.91138">
        <ele>1640.723823665</ele>
        <time>2014-12-12T11:29:58Z</time>
      </trkpt>
      <trkpt lat="45.41022" lon="5.91138">
        <ele>1640.723823665</ele>
        <time>2014-12-12T11:30:03Z</time>
      </trkpt>
      <trkpt lat="45.41022" lon="5.91138">
        <ele>1640.723823665</ele>
        <time>2014-12-12T11:30:08Z</time>
      </trkpt>
      <trkpt lat="45.41022" lon="5.91138">
        <ele>1640.723823665</ele>
        <time>2014-12-12T11:30:13Z</time>
      </trkpt>
      <trkpt lat="45.41024" lon="5.91138">
        <ele>1640.723823665</ele>
        <time>2014-12-12T11:30:18Z</time>
      </trkpt>
      <trkpt lat="45.41024" lon="5.91139">
        <ele>1640.723823665</ele>
        <time>2014-12-12T11:30:23Z</time>
      </trkpt>
      <trkpt lat="45.41023" lon="5.9114">
        <ele>1640.723823665</ele>
        <time>2014-12-12T11:30:28Z</time>
      </trkpt>
      <trkpt lat="45.41023" lon="5.9114">
        <ele>1640.723823665</ele>
        <time>2014-12-12T11:30:33Z</time>
      </trkpt>
      <trkpt lat="45.41023" lon="5.9114">
        <ele>1640.723823665</ele>
        <time>2014-12-12T11:30:38Z</time>
      </trkpt>
      <trkpt lat="45.41023" lon="5.9114">
        <ele>1640.723823665</ele>
        <time>2014-12-12T11:30:43Z</time>
      </trkpt>
      <trkpt lat="45.41023" lon="5.9114">
        <ele>1640.723823665</ele>
        <time>2014-12-12T11:30:54Z</time>
      </trkpt>
      <trkpt lat="45.41023" lon="5.9114">
        <ele>1640.723823665</ele>
        <time>2014-12-12T11:31:00Z</time>
      </trkpt>
      <trkpt lat="45.41023" lon="5.9114">
        <ele>1640.723823665</ele>
        <time>2014-12-12T11:31:13Z</time>
      </trkpt>
      <trkpt lat="45.41023" lon="5.9114">
        <ele>1640.723823665</ele>
        <time>2014-12-12T11:31:18Z</time>
      </trkpt>
      <trkpt lat="45.41023" lon="5.9114">
        <ele>1640.723823665</ele>
        <time>2014-12-12T11:31:25Z</time>
      </trkpt>
      <trkpt lat="45.40998" lon="5.91067">
        <ele>1645.961166051</ele>
        <time>2014-12-12T11:33:11Z</time>
      </trkpt>
      <trkpt lat="45.40982" lon="5.91034">
        <ele>1648.104575281</ele>
        <time>2014-12-12T11:34:00Z</time>
      </trkpt>
      <trkpt lat="45.40953" lon="5.9102">
        <ele>1650.134796152</ele>
        <time>2014-12-12T11:34:23Z</time>
      </trkpt>
      <trkpt lat="45.40919" lon="5.91036">
        <ele>1653.516069608</ele>
        <time>2014-12-12T11:35:23Z</time>
      </trkpt>
      <trkpt lat="45.4092" lon="5.91039">
        <ele>1653.516069608</ele>
        <time>2014-12-12T11:36:06Z</time>
      </trkpt>
      <trkpt lat="45.40919" lon="5.91039">
        <ele>1653.516069608</ele>
        <time>2014-12-12T11:36:23Z</time>
      </trkpt>
      <trkpt lat="45.40926" lon="5.91025">
        <ele>1655.85355575</ele>
        <time>2014-12-12T11:36:46Z</time>
      </trkpt>
      <trkpt lat="45.40919" lon="5.91009">
        <ele>1658.101669037</ele>
        <time>2014-12-12T11:37:00Z</time>
      </trkpt>
      <trkpt lat="45.40918" lon="5.91006">
        <ele>1658.101669037</ele>
        <time>2014-12-12T11:37:23Z</time>
      </trkpt>
      <trkpt lat="45.40918" lon="5.91006">
        <ele>1658.101669037</ele>
        <time>2014-12-12T11:38:04Z</time>
      </trkpt>
      <trkpt lat="45.40918" lon="5.91006">
        <ele>1658.101669037</ele>
        <time>2014-12-12T11:38:28Z</time>
      </trkpt>
      <trkpt lat="45.40915" lon="5.90994">
        <ele>1659.41504663</ele>
        <time>2014-12-12T11:38:53Z</time>
      </trkpt>
      <trkpt lat="45.40913" lon="5.90992">
        <ele>1659.41504663</ele>
        <time>2014-12-12T11:39:00Z</time>
      </trkpt>
      <trkpt lat="45.40913" lon="5.9099">
        <ele>1659.41504663</ele>
        <time>2014-12-12T11:39:05Z</time>
      </trkpt>
      <trkpt lat="45.40901" lon="5.9098">
        <ele>1660.742047598</ele>
        <time>2014-12-12T11:39:23Z</time>
      </trkpt>
      <trkpt lat="45.40895" lon="5.9097">
        <ele>1662.24026119</ele>
        <time>2014-12-12T11:39:41Z</time>
      </trkpt>
      <trkpt lat="45.40894" lon="5.90967">
        <ele>1662.24026119</ele>
        <time>2014-12-12T11:39:54Z</time>
      </trkpt>
      <trkpt lat="45.40896" lon="5.90962">
        <ele>1662.24026119</ele>
        <time>2014-12-12T11:39:59Z</time>
      </trkpt>
      <trkpt lat="45.40897" lon="5.9096">
        <ele>1662.24026119</ele>
        <time>2014-12-12T11:40:05Z</time>
      </trkpt>
      <trkpt lat="45.40896" lon="5.90956">
        <ele>1663.766533673</ele>
        <time>2014-12-12T11:40:09Z</time>
      </trkpt>
      <trkpt lat="45.40894" lon="5.90952">
        <ele>1663.766533673</ele>
        <time>2014-12-12T11:40:14Z</time>
      </trkpt>
      <trkpt lat="45.40892" lon="5.90942">
        <ele>1664.467122907</ele>
        <time>2014-12-12T11:40:19Z</time>
      </trkpt>
      <trkpt lat="45.4089" lon="5.9094">
        <ele>1664.467122907</ele>
        <time>2014-12-12T11:40:28Z</time>
      </trkpt>
      <trkpt lat="45.40883" lon="5.90924">
        <ele>1666.002784635</ele>
        <time>2014-12-12T11:40:48Z</time>
      </trkpt>
      <trkpt lat="45.4088" lon="5.90906">
        <ele>1667.3154127</ele>
        <time>2014-12-12T11:41:10Z</time>
      </trkpt>
      <trkpt lat="45.40878" lon="5.90903">
        <ele>1667.3154127</ele>
        <time>2014-12-12T11:41:23Z</time>
      </trkpt>
      <trkpt lat="45.40878" lon="5.90899">
        <ele>1667.3154127</ele>
        <time>2014-12-12T11:41:51Z</time>
      </trkpt>
      <trkpt lat="45.40864" lon="5.90884">
        <ele>1668.72180175</ele>
        <time>2014-12-12T11:42:23Z</time>
      </trkpt>
      <trkpt lat="45.40845" lon="5.90877">
        <ele>1670.370622149</ele>
        <time>2014-12-12T11:42:38Z</time>
      </trkpt>
      <trkpt lat="45.40802" lon="5.90847">
        <ele>1670.81322924</ele>
        <time>2014-12-12T11:44:05Z</time>
      </trkpt>
      <trkpt lat="45.40794" lon="5.90815">
        <ele>1671.880781439</ele>
        <time>2014-12-12T11:45:53Z</time>
      </trkpt>
      <trkpt lat="45.40794" lon="5.90814">
        <ele>1671.880781439</ele>
        <time>2014-12-12T11:45:58Z</time>
      </trkpt>
      <trkpt lat="45.40794" lon="5.90814">
        <ele>1671.880781439</ele>
        <time>2014-12-12T11:46:03Z</time>
      </trkpt>
      <trkpt lat="45.40794" lon="5.90814">
        <ele>1671.880781439</ele>
        <time>2014-12-12T11:46:08Z</time>
      </trkpt>
      <trkpt lat="45.40794" lon="5.90814">
        <ele>1671.880781439</ele>
        <time>2014-12-12T11:46:13Z</time>
      </trkpt>
      <trkpt lat="45.40794" lon="5.90814">
        <ele>1671.880781439</ele>
        <time>2014-12-12T11:46:18Z</time>
      </trkpt>
      <trkpt lat="45.40794" lon="5.90814">
        <ele>1671.880781439</ele>
        <time>2014-12-12T11:46:23Z</time>
      </trkpt>
      <trkpt lat="45.40795" lon="5.90807">
        <ele>1671.880781439</ele>
        <time>2014-12-12T11:46:54Z</time>
      </trkpt>
      <trkpt lat="45.40795" lon="5.90803">
        <ele>1671.880781439</ele>
        <time>2014-12-12T11:47:00Z</time>
      </trkpt>
      <trkpt lat="45.40792" lon="5.90773">
        <ele>1674.403025939</ele>
        <time>2014-12-12T11:48:00Z</time>
      </trkpt>
      <trkpt lat="45.40796" lon="5.90753">
        <ele>1676.694292613</ele>
        <time>2014-12-12T11:49:00Z</time>
      </trkpt>
      <trkpt lat="45.40803" lon="5.90747">
        <ele>1676.694292613</ele>
        <time>2014-12-12T11:49:10Z</time>
      </trkpt>
      <trkpt lat="45.40786" lon="5.90706">
        <ele>1678.634059187</ele>
        <time>2014-12-12T11:50:05Z</time>
      </trkpt>
      <trkpt lat="45.40786" lon="5.90706">
        <ele>1678.634059187</ele>
        <time>2014-12-12T11:50:10Z</time>
      </trkpt>
      <trkpt lat="45.40793" lon="5.90697">
        <ele>1680.39942659</ele>
        <time>2014-12-12T11:51:19Z</time>
      </trkpt>
      <trkpt lat="45.40793" lon="5.90695">
        <ele>1680.39942659</ele>
        <time>2014-12-12T11:51:25Z</time>
      </trkpt>
      <trkpt lat="45.40795" lon="5.90684">
        <ele>1682.298660287</ele>
        <time>2014-12-12T11:51:54Z</time>
      </trkpt>
      <trkpt lat="45.40785" lon="5.90655">
        <ele>1684.32836081</ele>
        <time>2014-12-12T11:52:59Z</time>
      </trkpt>
      <trkpt lat="45.40787" lon="5.90631">
        <ele>1686.484607731</ele>
        <time>2014-12-12T11:53:06Z</time>
      </trkpt>
      <trkpt lat="45.40789" lon="5.90629">
        <ele>1686.484607731</ele>
        <time>2014-12-12T11:53:09Z</time>
      </trkpt>
      <trkpt lat="45.40788" lon="5.90628">
        <ele>1686.484607731</ele>
        <time>2014-12-12T11:53:14Z</time>
      </trkpt>
      <trkpt lat="45.40789" lon="5.90621">
        <ele>1686.484607731</ele>
        <time>2014-12-12T11:53:19Z</time>
      </trkpt>
      <trkpt lat="45.4079" lon="5.90617">
        <ele>1688.763022615</ele>
        <time>2014-12-12T11:53:25Z</time>
      </trkpt>
      <trkpt lat="45.40788" lon="5.90615">
        <ele>1688.763022615</ele>
        <time>2014-12-12T11:53:30Z</time>
      </trkpt>
      <trkpt lat="45.40788" lon="5.90614">
        <ele>1688.763022615</ele>
        <time>2014-12-12T11:53:35Z</time>
      </trkpt>
      <trkpt lat="45.40789" lon="5.90615">
        <ele>1688.763022615</ele>
        <time>2014-12-12T11:53:42Z</time>
      </trkpt>
      <trkpt lat="45.4079" lon="5.90612">
        <ele>1688.763022615</ele>
        <time>2014-12-12T11:53:53Z</time>
      </trkpt>
      <trkpt lat="45.4079" lon="5.90611">
        <ele>1688.763022615</ele>
        <time>2014-12-12T11:54:00Z</time>
      </trkpt>
      <trkpt lat="45.40789" lon="5.90612">
        <ele>1688.763022615</ele>
        <time>2014-12-12T11:54:40Z</time>
      </trkpt>
      <trkpt lat="45.40789" lon="5.90612">
        <ele>1688.763022615</ele>
        <time>2014-12-12T11:54:51Z</time>
      </trkpt>
      <trkpt lat="45.40789" lon="5.90612">
        <ele>1688.763022615</ele>
        <time>2014-12-12T11:54:59Z</time>
      </trkpt>
      <trkpt lat="45.40789" lon="5.90609">
        <ele>1691.302944825</ele>
        <time>2014-12-12T11:55:05Z</time>
      </trkpt>
      <trkpt lat="45.40797" lon="5.9053">
        <ele>1694.376500431</ele>
        <time>2014-12-12T11:56:29Z</time>
      </trkpt>
      <trkpt lat="45.40807" lon="5.90458">
        <ele>1697.369298593</ele>
        <time>2014-12-12T11:58:00Z</time>
      </trkpt>
      <trkpt lat="45.40805" lon="5.90455">
        <ele>1697.369298593</ele>
        <time>2014-12-12T11:58:05Z</time>
      </trkpt>
      <trkpt lat="45.40806" lon="5.90454">
        <ele>1697.369298593</ele>
        <time>2014-12-12T11:58:10Z</time>
      </trkpt>
      <trkpt lat="45.40805" lon="5.90447">
        <ele>1700.57667735</ele>
        <time>2014-12-12T11:58:14Z</time>
      </trkpt>
      <trkpt lat="45.40805" lon="5.90443">
        <ele>1700.57667735</ele>
        <time>2014-12-12T11:58:20Z</time>
      </trkpt>
      <trkpt lat="45.4079" lon="5.90411">
        <ele>1703.839033534</ele>
        <time>2014-12-12T11:59:24Z</time>
      </trkpt>
      <trkpt lat="45.4078" lon="5.90401">
        <ele>1707.152172055</ele>
        <time>2014-12-12T11:59:45Z</time>
      </trkpt>
      <trkpt lat="45.40768" lon="5.90394">
        <ele>1710.800037565</ele>
        <time>2014-12-12T12:00:04Z</time>
      </trkpt>
      <trkpt lat="45.40754" lon="5.90386">
        <ele>1713.891625525</ele>
        <time>2014-12-12T12:00:23Z</time>
      </trkpt>
      <trkpt lat="45.4075" lon="5.90381">
        <ele>1713.891625525</ele>
        <time>2014-12-12T12:00:54Z</time>
      </trkpt>
      <trkpt lat="45.40747" lon="5.90374">
        <ele>1717.47622268</ele>
        <time>2014-12-12T12:01:00Z</time>
      </trkpt>
      <trkpt lat="45.40751" lon="5.90352">
        <ele>1721.371541245</ele>
        <time>2014-12-12T12:02:23Z</time>
      </trkpt>
      <trkpt lat="45.40762" lon="5.90355">
        <ele>1725.407641971</ele>
        <time>2014-12-12T12:03:26Z</time>
      </trkpt>
      <trkpt lat="45.40771" lon="5.90346">
        <ele>1729.138296564</ele>
        <time>2014-12-12T12:03:50Z</time>
      </trkpt>
      <trkpt lat="45.40778" lon="5.90346">
        <ele>1729.138296564</ele>
        <time>2014-12-12T12:04:00Z</time>
      </trkpt>
      <trkpt lat="45.40784" lon="5.90348">
        <ele>1732.00667024</ele>
        <time>2014-12-12T12:04:23Z</time>
      </trkpt>
      <trkpt lat="45.40798" lon="5.90344">
        <ele>1733.643251268</ele>
        <time>2014-12-12T12:04:52Z</time>
      </trkpt>
      <trkpt lat="45.40807" lon="5.90343">
        <ele>1733.643251268</ele>
        <time>2014-12-12T12:05:10Z</time>
      </trkpt>
      <trkpt lat="45.40814" lon="5.90347">
        <ele>1735.582494464</ele>
        <time>2014-12-12T12:05:23Z</time>
      </trkpt>
      <trkpt lat="45.40829" lon="5.90364">
        <ele>1735.930573298</ele>
        <time>2014-12-12T12:05:49Z</time>
      </trkpt>
      <trkpt lat="45.40829" lon="5.90363">
        <ele>1735.930573298</ele>
        <time>2014-12-12T12:06:00Z</time>
      </trkpt>
      <trkpt lat="45.40835" lon="5.9036">
        <ele>1735.930573298</ele>
        <time>2014-12-12T12:06:01Z</time>
      </trkpt>
      <trkpt lat="45.40836" lon="5.9036">
        <ele>1735.930573298</ele>
        <time>2014-12-12T12:06:06Z</time>
      </trkpt>
      <trkpt lat="45.40838" lon="5.90359">
        <ele>1736.684082656</ele>
        <time>2014-12-12T12:06:14Z</time>
      </trkpt>
      <trkpt lat="45.40842" lon="5.90358">
        <ele>1736.684082656</ele>
        <time>2014-12-12T12:06:19Z</time>
      </trkpt>
      <trkpt lat="45.4087" lon="5.90359">
        <ele>1736.521211212</ele>
        <time>2014-12-12T12:07:00Z</time>
      </trkpt>
      <trkpt lat="45.40871" lon="5.90357">
        <ele>1736.521211212</ele>
        <time>2014-12-12T12:07:09Z</time>
      </trkpt>
      <trkpt lat="45.40899" lon="5.90354">
        <ele>1736.237278332</ele>
        <time>2014-12-12T12:07:43Z</time>
      </trkpt>
      <trkpt lat="45.40905" lon="5.90345">
        <ele>1735.992934732</ele>
        <time>2014-12-12T12:08:25Z</time>
      </trkpt>
      <trkpt lat="45.40918" lon="5.90367">
        <ele>1735.792663193</ele>
        <time>2014-12-12T12:08:54Z</time>
      </trkpt>
      <trkpt lat="45.40918" lon="5.90368">
        <ele>1735.792663193</ele>
        <time>2014-12-12T12:09:00Z</time>
      </trkpt>
      <trkpt lat="45.40918" lon="5.90368">
        <ele>1735.792663193</ele>
        <time>2014-12-12T12:09:35Z</time>
      </trkpt>
      <trkpt lat="45.40923" lon="5.90375">
        <ele>1735.792663193</ele>
        <time>2014-12-12T12:09:39Z</time>
      </trkpt>
      <trkpt lat="45.40923" lon="5.90376">
        <ele>1735.792663193</ele>
        <time>2014-12-12T12:09:50Z</time>
      </trkpt>
      <trkpt lat="45.40923" lon="5.90376">
        <ele>1735.792663193</ele>
        <time>2014-12-12T12:09:54Z</time>
      </trkpt>
      <trkpt lat="45.40923" lon="5.90376">
        <ele>1735.792663193</ele>
        <time>2014-12-12T12:09:59Z</time>
      </trkpt>
      <trkpt lat="45.40923" lon="5.90376">
        <ele>1735.792663193</ele>
        <time>2014-12-12T12:10:07Z</time>
      </trkpt>
      <trkpt lat="45.40923" lon="5.90376">
        <ele>1735.792663193</ele>
        <time>2014-12-12T12:10:09Z</time>
      </trkpt>
      <trkpt lat="45.40925" lon="5.90375">
        <ele>1735.784451836</ele>
        <time>2014-12-12T12:10:15Z</time>
      </trkpt>
      <trkpt lat="45.40926" lon="5.90376">
        <ele>1735.784451836</ele>
        <time>2014-12-12T12:10:20Z</time>
      </trkpt>
      <trkpt lat="45.40928" lon="5.90377">
        <ele>1735.784451836</ele>
        <time>2014-12-12T12:10:24Z</time>
      </trkpt>
      <trkpt lat="45.40929" lon="5.90377">
        <ele>1735.784451836</ele>
        <time>2014-12-12T12:10:30Z</time>
      </trkpt>
      <trkpt lat="45.40928" lon="5.90374">
        <ele>1735.784451836</ele>
        <time>2014-12-12T12:10:35Z</time>
      </trkpt>
      <trkpt lat="45.40929" lon="5.90375">
        <ele>1735.784451836</ele>
        <time>2014-12-12T12:10:39Z</time>
      </trkpt>
      <trkpt lat="45.4093" lon="5.90376">
        <ele>1735.784451836</ele>
        <time>2014-12-12T12:10:45Z</time>
      </trkpt>
      <trkpt lat="45.40931" lon="5.9038">
        <ele>1734.663594845</ele>
        <time>2014-12-12T12:10:49Z</time>
      </trkpt>
      <trkpt lat="45.40933" lon="5.90383">
        <ele>1734.663594845</ele>
        <time>2014-12-12T12:10:55Z</time>
      </trkpt>
      <trkpt lat="45.40934" lon="5.90386">
        <ele>1734.663594845</ele>
        <time>2014-12-12T12:10:59Z</time>
      </trkpt>
      <trkpt lat="45.40935" lon="5.90388">
        <ele>1734.663594845</ele>
        <time>2014-12-12T12:11:05Z</time>
      </trkpt>
      <trkpt lat="45.40941" lon="5.90385">
        <ele>1732.953518517</ele>
        <time>2014-12-12T12:11:10Z</time>
      </trkpt>
      <trkpt lat="45.40945" lon="5.90382">
        <ele>1732.953518517</ele>
        <time>2014-12-12T12:11:14Z</time>
      </trkpt>
      <trkpt lat="45.40945" lon="5.90381">
        <ele>1732.953518517</ele>
        <time>2014-12-12T12:11:20Z</time>
      </trkpt>
      <trkpt lat="45.40949" lon="5.90385">
        <ele>1731.428883063</ele>
        <time>2014-12-12T12:11:25Z</time>
      </trkpt>
      <trkpt lat="45.4095" lon="5.90385">
        <ele>1731.428883063</ele>
        <time>2014-12-12T12:11:30Z</time>
      </trkpt>
      <trkpt lat="45.40987" lon="5.90369">
        <ele>1730.518494317</ele>
        <time>2014-12-12T12:13:00Z</time>
      </trkpt>
      <trkpt lat="45.41012" lon="5.90371">
        <ele>1730.329496749</ele>
        <time>2014-12-12T12:14:18Z</time>
      </trkpt>
      <trkpt lat="45.41031" lon="5.9039">
        <ele>1729.95013713</ele>
        <time>2014-12-12T12:16:00Z</time>
      </trkpt>
      <trkpt lat="45.41031" lon="5.90391">
        <ele>1729.95013713</ele>
        <time>2014-12-12T12:16:07Z</time>
      </trkpt>
      <trkpt lat="45.41111" lon="5.90464">
        <ele>1729.11239111</ele>
        <time>2014-12-12T12:19:00Z</time>
      </trkpt>
      <trkpt lat="45.41114" lon="5.90464">
        <ele>1729.11239111</ele>
        <time>2014-12-12T12:19:33Z</time>
      </trkpt>
      <trkpt lat="45.41114" lon="5.90464">
        <ele>1729.11239111</ele>
        <time>2014-12-12T12:19:38Z</time>
      </trkpt>
      <trkpt lat="45.41114" lon="5.90464">
        <ele>1729.11239111</ele>
        <time>2014-12-12T12:19:43Z</time>
      </trkpt>
      <trkpt lat="45.41114" lon="5.90464">
        <ele>1729.11239111</ele>
        <time>2014-12-12T12:19:48Z</time>
      </trkpt>
      <trkpt lat="45.41114" lon="5.90464">
        <ele>1729.11239111</ele>
        <time>2014-12-12T12:19:53Z</time>
      </trkpt>
      <trkpt lat="45.41114" lon="5.90464">
        <ele>1729.11239111</ele>
        <time>2014-12-12T12:20:00Z</time>
      </trkpt>
      <trkpt lat="45.41131" lon="5.90425">
        <ele>1730.018872657</ele>
        <time>2014-12-12T12:21:43Z</time>
      </trkpt>
      <trkpt lat="45.41126" lon="5.90414">
        <ele>1730.018872657</ele>
        <time>2014-12-12T12:22:14Z</time>
      </trkpt>
      <trkpt lat="45.41123" lon="5.90393">
        <ele>1730.81426689</ele>
        <time>2014-12-12T12:22:43Z</time>
      </trkpt>
      <trkpt lat="45.41118" lon="5.90375">
        <ele>1732.661868013</ele>
        <time>2014-12-12T12:23:06Z</time>
      </trkpt>
      <trkpt lat="45.4112" lon="5.90358">
        <ele>1735.195243497</ele>
        <time>2014-12-12T12:23:23Z</time>
      </trkpt>
      <trkpt lat="45.41122" lon="5.9034">
        <ele>1737.4963201</ele>
        <time>2014-12-12T12:23:52Z</time>
      </trkpt>
      <trkpt lat="45.41118" lon="5.90334">
        <ele>1737.4963201</ele>
        <time>2014-12-12T12:23:53Z</time>
      </trkpt>
      <trkpt lat="45.41121" lon="5.90329">
        <ele>1739.723724933</ele>
        <time>2014-12-12T12:24:01Z</time>
      </trkpt>
      <trkpt lat="45.41125" lon="5.90319">
        <ele>1739.723724933</ele>
        <time>2014-12-12T12:24:40Z</time>
      </trkpt>
      <trkpt lat="45.41129" lon="5.90317">
        <ele>1742.312711305</ele>
        <time>2014-12-12T12:24:44Z</time>
      </trkpt>
      <trkpt lat="45.41131" lon="5.90317">
        <ele>1742.312711305</ele>
        <time>2014-12-12T12:24:50Z</time>
      </trkpt>
      <trkpt lat="45.41132" lon="5.90316">
        <ele>1742.312711305</ele>
        <time>2014-12-12T12:24:55Z</time>
      </trkpt>
      <trkpt lat="45.4113" lon="5.9031">
        <ele>1742.312711305</ele>
        <time>2014-12-12T12:24:59Z</time>
      </trkpt>
      <trkpt lat="45.4113" lon="5.90309">
        <ele>1742.312711305</ele>
        <time>2014-12-12T12:25:07Z</time>
      </trkpt>
      <trkpt lat="45.41129" lon="5.90289">
        <ele>1745.953639437</ele>
        <time>2014-12-12T12:25:31Z</time>
      </trkpt>
      <trkpt lat="45.41136" lon="5.90274">
        <ele>1749.841988679</ele>
        <time>2014-12-12T12:26:00Z</time>
      </trkpt>
      <trkpt lat="45.41137" lon="5.90272">
        <ele>1749.841988679</ele>
        <time>2014-12-12T12:26:08Z</time>
      </trkpt>
      <trkpt lat="45.41142" lon="5.90263">
        <ele>1753.9521209</ele>
        <time>2014-12-12T12:26:19Z</time>
      </trkpt>
      <trkpt lat="45.41143" lon="5.90263">
        <ele>1753.9521209</ele>
        <time>2014-12-12T12:26:29Z</time>
      </trkpt>
      <trkpt lat="45.41163" lon="5.90259">
        <ele>1758.691941892</ele>
        <time>2014-12-12T12:27:23Z</time>
      </trkpt>
      <trkpt lat="45.41175" lon="5.90256">
        <ele>1763.284714916</ele>
        <time>2014-12-12T12:28:00Z</time>
      </trkpt>
      <trkpt lat="45.41187" lon="5.90255">
        <ele>1767.299402744</ele>
        <time>2014-12-12T12:28:25Z</time>
      </trkpt>
      <trkpt lat="45.4119" lon="5.90256">
        <ele>1767.299402744</ele>
        <time>2014-12-12T12:28:43Z</time>
      </trkpt>
      <trkpt lat="45.4119" lon="5.90256">
        <ele>1767.299402744</ele>
        <time>2014-12-12T12:28:48Z</time>
      </trkpt>
      <trkpt lat="45.4119" lon="5.90256">
        <ele>1767.299402744</ele>
        <time>2014-12-12T12:28:53Z</time>
      </trkpt>
      <trkpt lat="45.4119" lon="5.90257">
        <ele>1767.299402744</ele>
        <time>2014-12-12T12:28:58Z</time>
      </trkpt>
      <trkpt lat="45.4119" lon="5.90257">
        <ele>1767.299402744</ele>
        <time>2014-12-12T12:29:03Z</time>
      </trkpt>
      <trkpt lat="45.4119" lon="5.90257">
        <ele>1767.299402744</ele>
        <time>2014-12-12T12:29:10Z</time>
      </trkpt>
      <trkpt lat="45.41192" lon="5.90257">
        <ele>1767.299402744</ele>
        <time>2014-12-12T12:29:33Z</time>
      </trkpt>
      <trkpt lat="45.41255" lon="5.90298">
        <ele>1771.635287413</ele>
        <time>2014-12-12T12:32:09Z</time>
      </trkpt>
      <trkpt lat="45.41256" lon="5.90298">
        <ele>1771.635287413</ele>
        <time>2014-12-12T12:32:58Z</time>
      </trkpt>
      <trkpt lat="45.4132" lon="5.903">
        <ele>1776.980636927</ele>
        <time>2014-12-12T12:35:06Z</time>
      </trkpt>
      <trkpt lat="45.41322" lon="5.90301">
        <ele>1776.980636927</ele>
        <time>2014-12-12T12:35:13Z</time>
      </trkpt>
      <trkpt lat="45.41351" lon="5.90302">
        <ele>1782.385187622</ele>
        <time>2014-12-12T12:36:26Z</time>
      </trkpt>
      <trkpt lat="45.41352" lon="5.90302">
        <ele>1782.385187622</ele>
        <time>2014-12-12T12:36:35Z</time>
      </trkpt>
      <trkpt lat="45.41346" lon="5.90289">
        <ele>1788.121314324</ele>
        <time>2014-12-12T12:38:09Z</time>
      </trkpt>
      <trkpt lat="45.41343" lon="5.90284">
        <ele>1788.121314324</ele>
        <time>2014-12-12T12:38:54Z</time>
      </trkpt>
      <trkpt lat="45.41342" lon="5.90282">
        <ele>1788.121314324</ele>
        <time>2014-12-12T12:39:00Z</time>
      </trkpt>
      <trkpt lat="45.41335" lon="5.90258">
        <ele>1794.152365974</ele>
        <time>2014-12-12T12:39:39Z</time>
      </trkpt>
      <trkpt lat="45.41333" lon="5.90242">
        <ele>1799.00260374</ele>
        <time>2014-12-12T12:39:59Z</time>
      </trkpt>
      <trkpt lat="45.41333" lon="5.90238">
        <ele>1799.00260374</ele>
        <time>2014-12-12T12:40:03Z</time>
      </trkpt>
      <trkpt lat="45.41341" lon="5.90225">
        <ele>1805.055084959</ele>
        <time>2014-12-12T12:41:04Z</time>
      </trkpt>
      <trkpt lat="45.41365" lon="5.90218">
        <ele>1810.767748608</ele>
        <time>2014-12-12T12:42:07Z</time>
      </trkpt>
      <trkpt lat="45.41391" lon="5.90189">
        <ele>1817.018771343</ele>
        <time>2014-12-12T12:42:54Z</time>
      </trkpt>
      <trkpt lat="45.41397" lon="5.90183">
        <ele>1817.018771343</ele>
        <time>2014-12-12T12:43:59Z</time>
      </trkpt>
      <trkpt lat="45.41398" lon="5.90183">
        <ele>1817.018771343</ele>
        <time>2014-12-12T12:44:05Z</time>
      </trkpt>
      <trkpt lat="45.41399" lon="5.90187">
        <ele>1822.747105719</ele>
        <time>2014-12-12T12:44:10Z</time>
      </trkpt>
      <trkpt lat="45.41404" lon="5.90192">
        <ele>1822.747105719</ele>
        <time>2014-12-12T12:44:15Z</time>
      </trkpt>
      <trkpt lat="45.41406" lon="5.90196">
        <ele>1827.980152548</ele>
        <time>2014-12-12T12:44:20Z</time>
      </trkpt>
      <trkpt lat="45.41406" lon="5.90198">
        <ele>1827.980152548</ele>
        <time>2014-12-12T12:44:24Z</time>
      </trkpt>
      <trkpt lat="45.4141" lon="5.90202">
        <ele>1827.980152548</ele>
        <time>2014-12-12T12:44:30Z</time>
      </trkpt>
      <trkpt lat="45.41411" lon="5.90205">
        <ele>1827.980152548</ele>
        <time>2014-12-12T12:44:35Z</time>
      </trkpt>
      <trkpt lat="45.41411" lon="5.90206">
        <ele>1832.600849043</ele>
        <time>2014-12-12T12:44:39Z</time>
      </trkpt>
      <trkpt lat="45.41428" lon="5.90226">
        <ele>1836.214504508</ele>
        <time>2014-12-12T12:44:58Z</time>
      </trkpt>
      <trkpt lat="45.41428" lon="5.90226">
        <ele>1836.214504508</ele>
        <time>2014-12-12T12:45:09Z</time>
      </trkpt>
      <trkpt lat="45.41431" lon="5.90223">
        <ele>1836.214504508</ele>
        <time>2014-12-12T12:45:43Z</time>
      </trkpt>
      <trkpt lat="45.41431" lon="5.90223">
        <ele>1836.214504508</ele>
        <time>2014-12-12T12:46:00Z</time>
      </trkpt>
      <trkpt lat="45.41431" lon="5.90223">
        <ele>1836.214504508</ele>
        <time>2014-12-12T12:46:23Z</time>
      </trkpt>
      <trkpt lat="45.41441" lon="5.90219">
        <ele>1840.476083791</ele>
        <time>2014-12-12T12:47:24Z</time>
      </trkpt>
      <trkpt lat="45.41443" lon="5.90218">
        <ele>1840.476083791</ele>
        <time>2014-12-12T12:47:45Z</time>
      </trkpt>
      <trkpt lat="45.41459" lon="5.90211">
        <ele>1845.043992405</ele>
        <time>2014-12-12T12:48:54Z</time>
      </trkpt>
      <trkpt lat="45.4146" lon="5.90213">
        <ele>1845.043992405</ele>
        <time>2014-12-12T12:48:59Z</time>
      </trkpt>
      <trkpt lat="45.41466" lon="5.90213">
        <ele>1845.043992405</ele>
        <time>2014-12-12T12:49:49Z</time>
      </trkpt>
      <trkpt lat="45.41462" lon="5.90215">
        <ele>1848.736474847</ele>
        <time>2014-12-12T12:50:00Z</time>
      </trkpt>
      <trkpt lat="45.41455" lon="5.90218">
        <ele>1848.736474847</ele>
        <time>2014-12-12T12:50:48Z</time>
      </trkpt>
      <trkpt lat="45.41456" lon="5.90216">
        <ele>1852.478866342</ele>
        <time>2014-12-12T12:51:08Z</time>
      </trkpt>
      <trkpt lat="45.41455" lon="5.90216">
        <ele>1852.478866342</ele>
        <time>2014-12-12T12:51:16Z</time>
      </trkpt>
      <trkpt lat="45.41453" lon="5.90211">
        <ele>1852.478866342</ele>
        <time>2014-12-12T12:52:02Z</time>
      </trkpt>
      <trkpt lat="45.41452" lon="5.90212">
        <ele>1852.478866342</ele>
        <time>2014-12-12T12:52:30Z</time>
      </trkpt>
      <trkpt lat="45.41452" lon="5.90212">
        <ele>1852.478866342</ele>
        <time>2014-12-12T12:52:43Z</time>
      </trkpt>
      <trkpt lat="45.41452" lon="5.90212">
        <ele>1852.478866342</ele>
        <time>2014-12-12T12:53:05Z</time>
      </trkpt>
      <trkpt lat="45.41451" lon="5.90211">
        <ele>1852.478866342</ele>
        <time>2014-12-12T12:53:53Z</time>
      </trkpt>
      <trkpt lat="45.41451" lon="5.90211">
        <ele>1852.478866342</ele>
        <time>2014-12-12T12:54:00Z</time>
      </trkpt>
      <trkpt lat="45.41451" lon="5.90211">
        <ele>1852.478866342</ele>
        <time>2014-12-12T12:54:08Z</time>
      </trkpt>
      <trkpt lat="45.41452" lon="5.90211">
        <ele>1852.478866342</ele>
        <time>2014-12-12T12:54:35Z</time>
      </trkpt>
      <trkpt lat="45.41452" lon="5.90211">
        <ele>1852.478866342</ele>
        <time>2014-12-12T12:54:38Z</time>
      </trkpt>
      <trkpt lat="45.41466" lon="5.90211">
        <ele>1823.40625</ele>
      </trkpt>
      <trkpt lat="45.4151" lon="5.90214">
        <ele>1825.4765625</ele>
      </trkpt>
      <trkpt lat="45.41551" lon="5.90232">
        <ele>1826.01171875</ele>
      </trkpt>
      <trkpt lat="45.41594" lon="5.90224">
        <ele>1826.953125</ele>
      </trkpt>
      <trkpt lat="45.41637" lon="5.90219">
        <ele>1829.22265625</ele>
      </trkpt>
      <trkpt lat="45.41693" lon="5.90196">
        <ele>1835.453125</ele>
      </trkpt>
      <trkpt lat="45.41747" lon="5.9018">
        <ele>1843.23046875</ele>
      </trkpt>
      <trkpt lat="45.41802" lon="5.90159">
        <ele>1847.65234375</ele>
      </trkpt>
      <trkpt lat="45.41855" lon="5.9018">
        <ele>1844.38671875</ele>
      </trkpt>
      <trkpt lat="45.41901" lon="5.9019">
        <ele>1843.35546875</ele>
      </trkpt>
      <trkpt lat="45.4193" lon="5.90229">
        <ele>1840.16796875</ele>
      </trkpt>
      <trkpt lat="45.41962" lon="5.90263">
        <ele>1835.7421875</ele>
      </trkpt>
      <trkpt lat="45.41965" lon="5.90251">
        <ele>1833.54</ele>
        <time>2014-11-29T09:34:22Z</time>
      </trkpt>
      <trkpt lat="45.41957" lon="5.90275">
        <ele>1830.52</ele>
        <time>2014-11-29T09:34:39Z</time>
      </trkpt>
      <trkpt lat="45.41945" lon="5.90295">
        <ele>1825.12</ele>
        <time>2014-11-29T09:34:50Z</time>
      </trkpt>
      <trkpt lat="45.41934" lon="5.90315">
        <ele>1825.15</ele>
        <time>2014-11-29T09:35:07Z</time>
      </trkpt>
      <trkpt lat="45.41922" lon="5.90334">
        <ele>1824.89</ele>
        <time>2014-11-29T09:35:26Z</time>
      </trkpt>
      <trkpt lat="45.41907" lon="5.90351">
        <ele>1821.33</ele>
        <time>2014-11-29T09:36:11Z</time>
      </trkpt>
      <trkpt lat="45.41891" lon="5.90363">
        <ele>1818.36</ele>
        <time>2014-11-29T09:36:29Z</time>
      </trkpt>
      <trkpt lat="45.41872" lon="5.90365">
        <ele>1822.42</ele>
        <time>2014-11-29T09:36:57Z</time>
      </trkpt>
      <trkpt lat="45.41858" lon="5.90347">
        <ele>1821.32</ele>
        <time>2014-11-29T09:37:14Z</time>
      </trkpt>
      <trkpt lat="45.41838" lon="5.90348">
        <ele>1812.11</ele>
        <time>2014-11-29T09:37:41Z</time>
      </trkpt>
      <trkpt lat="45.41823" lon="5.90365">
        <ele>1810.42</ele>
        <time>2014-11-29T09:38:00Z</time>
      </trkpt>
      <trkpt lat="45.41812" lon="5.90386">
        <ele>1807.44</ele>
        <time>2014-11-29T09:38:21Z</time>
      </trkpt>
      <trkpt lat="45.41808" lon="5.90412">
        <ele>1797.9</ele>
        <time>2014-11-29T09:38:35Z</time>
      </trkpt>
      <trkpt lat="45.41809" lon="5.90437">
        <ele>1793.54</ele>
        <time>2014-11-29T09:38:47Z</time>
      </trkpt>
      <trkpt lat="45.418" lon="5.90459">
        <ele>1788.72</ele>
        <time>2014-11-29T09:39:18Z</time>
      </trkpt>
      <trkpt lat="45.41799" lon="5.90485">
        <ele>1784.77</ele>
        <time>2014-11-29T09:39:34Z</time>
      </trkpt>
      <trkpt lat="45.41802" lon="5.90514">
        <ele>1786.72</ele>
        <time>2014-11-29T09:40:08Z</time>
      </trkpt>
      <trkpt lat="45.41802" lon="5.9054">
        <ele>1782.75</ele>
        <time>2014-11-29T09:40:27Z</time>
      </trkpt>
      <trkpt lat="45.41809" lon="5.90565">
        <ele>1777.75</ele>
        <time>2014-11-29T09:40:50Z</time>
      </trkpt>
      <trkpt lat="45.4182" lon="5.90586">
        <ele>1771.16</ele>
        <time>2014-11-29T09:41:01Z</time>
      </trkpt>
      <trkpt lat="45.41831" lon="5.90608">
        <ele>1766.45</ele>
        <time>2014-11-29T09:41:16Z</time>
      </trkpt>
      <trkpt lat="45.41844" lon="5.90628">
        <ele>1763.03</ele>
        <time>2014-11-29T09:41:32Z</time>
      </trkpt>
      <trkpt lat="45.4185" lon="5.90654">
        <ele>1755.18</ele>
        <time>2014-11-29T09:41:46Z</time>
      </trkpt>
      <trkpt lat="45.41846" lon="5.90681">
        <ele>1740.56</ele>
        <time>2014-11-29T09:42:32Z</time>
      </trkpt>
      <trkpt lat="45.41839" lon="5.90706">
        <ele>1740.43</ele>
        <time>2014-11-29T09:42:54Z</time>
      </trkpt>
      <trkpt lat="45.41831" lon="5.9073">
        <ele>1739.15</ele>
        <time>2014-11-29T09:43:16Z</time>
      </trkpt>
      <trkpt lat="45.41816" lon="5.90744">
        <ele>1740.37</ele>
        <time>2014-11-29T09:44:14Z</time>
      </trkpt>
      <trkpt lat="45.41798" lon="5.90744">
        <ele>1740.72</ele>
        <time>2014-11-29T09:45:01Z</time>
      </trkpt>
      <trkpt lat="45.4178" lon="5.90738">
        <ele>1739.92</ele>
        <time>2014-11-29T09:45:20Z</time>
      </trkpt>
      <trkpt lat="45.41762" lon="5.90743">
        <ele>1737.75</ele>
        <time>2014-11-29T09:46:38Z</time>
      </trkpt>
      <trkpt lat="45.41743" lon="5.90744">
        <ele>1729.78</ele>
        <time>2014-11-29T09:47:24Z</time>
      </trkpt>
      <trkpt lat="45.41729" lon="5.9076">
        <ele>1724.88</ele>
        <time>2014-11-29T09:48:48Z</time>
      </trkpt>
      <trkpt lat="45.4171" lon="5.90758">
        <ele>1724.58</ele>
        <time>2014-11-29T09:49:16Z</time>
      </trkpt>
      <trkpt lat="45.41695" lon="5.90744">
        <ele>1706.89</ele>
        <time>2014-11-29T09:49:57Z</time>
      </trkpt>
      <trkpt lat="45.41679" lon="5.90759">
        <ele>1711.56</ele>
        <time>2014-11-29T09:50:26Z</time>
      </trkpt>
      <trkpt lat="45.41659" lon="5.90763">
        <ele>1701.16</ele>
        <time>2014-11-29T09:50:57Z</time>
      </trkpt>
      <trkpt lat="45.41644" lon="5.90748">
        <ele>1683.03</ele>
        <time>2014-11-29T09:51:43Z</time>
      </trkpt>
      <trkpt lat="45.41624" lon="5.90751">
        <ele>1669.87</ele>
        <time>2014-11-29T09:52:05Z</time>
      </trkpt>
      <trkpt lat="45.41606" lon="5.90749">
        <ele>1663.68</ele>
        <time>2014-11-29T09:52:28Z</time>
      </trkpt>
      <trkpt lat="45.41586" lon="5.90751">
        <ele>1657.5</ele>
        <time>2014-11-29T09:52:54Z</time>
      </trkpt>
      <trkpt lat="45.41573" lon="5.90768">
        <ele>1652.33</ele>
        <time>2014-11-29T09:53:13Z</time>
      </trkpt>
      <trkpt lat="45.41561" lon="5.90788">
        <ele>1652.87</ele>
        <time>2014-11-29T09:53:29Z</time>
      </trkpt>
      <trkpt lat="45.4155" lon="5.90811">
        <ele>1652.32</ele>
        <time>2014-11-29T09:53:46Z</time>
      </trkpt>
      <trkpt lat="45.41546" lon="5.90837">
        <ele>1654.19</ele>
        <time>2014-11-29T09:54:02Z</time>
      </trkpt>
      <trkpt lat="45.4155" lon="5.90863">
        <ele>1653.6</ele>
        <time>2014-11-29T09:54:17Z</time>
      </trkpt>
      <trkpt lat="45.41548" lon="5.90889">
        <ele>1647.04</ele>
        <time>2014-11-29T09:54:30Z</time>
      </trkpt>
      <trkpt lat="45.41545" lon="5.90916">
        <ele>1637.12</ele>
        <time>2014-11-29T09:54:49Z</time>
      </trkpt>
      <trkpt lat="45.41546" lon="5.90942">
        <ele>1634.42</ele>
        <time>2014-11-29T09:55:09Z</time>
      </trkpt>
      <trkpt lat="45.41538" lon="5.90966">
        <ele>1633.57</ele>
        <time>2014-11-29T09:55:39Z</time>
      </trkpt>
      <trkpt lat="45.41543" lon="5.90993">
        <ele>1627.51</ele>
        <time>2014-11-29T09:56:00Z</time>
      </trkpt>
      <trkpt lat="45.41547" lon="5.91019">
        <ele>1634.43</ele>
        <time>2014-11-29T09:57:20Z</time>
      </trkpt>
      <trkpt lat="45.41558" lon="5.9104">
        <ele>1631.81</ele>
        <time>2014-11-29T09:57:47Z</time>
      </trkpt>
      <trkpt lat="45.41568" lon="5.91063">
        <ele>1643.17</ele>
        <time>2014-11-29T09:58:19Z</time>
      </trkpt>
      <trkpt lat="45.41571" lon="5.91066">
        <ele>1652.6796875</ele>
      </trkpt>
      <trkpt lat="45.41551" lon="5.91126">
        <ele>1653.8984375</ele>
      </trkpt>
      <trkpt lat="45.41499" lon="5.91147">
        <ele>1649.8203125</ele>
      </trkpt>
      <trkpt lat="45.4144" lon="5.91173">
        <ele>1645.765625</ele>
      </trkpt>
      <trkpt lat="45.41404" lon="5.91219">
        <ele>1646.15234375</ele>
      </trkpt>
      <trkpt lat="45.41377" lon="5.91248">
        <ele>1647.015625</ele>
      </trkpt>
      <trkpt lat="45.41364" lon="5.91308">
        <ele>1655.1640625</ele>
      </trkpt>
      <trkpt lat="45.41335" lon="5.91344">
        <ele>1659.0625</ele>
      </trkpt>
      <trkpt lat="45.41319" lon="5.91388">
        <ele>1663.9296875</ele>
      </trkpt>
      <trkpt lat="45.41251" lon="5.9138">
        <ele>1661.3984375</ele>
      </trkpt>
      <trkpt lat="45.41233" lon="5.91357">
        <ele>1658.62109375</ele>
      </trkpt>
      <trkpt lat="45.4121" lon="5.91354">
        <ele>1655.296875</ele>
      </trkpt>
      <trkpt lat="45.41188" lon="5.91349">
        <ele>1652.95703125</ele>
      </trkpt>
      <trkpt lat="45.41187" lon="5.91346">
        <ele>1830.75624786</ele>
        <time>2014-12-12T14:13:18Z</time>
      </trkpt>
      <trkpt lat="45.41172" lon="5.91353">
        <ele>1805.106390973</ele>
        <time>2014-12-12T14:13:23Z</time>
      </trkpt>
      <trkpt lat="45.41171" lon="5.91352">
        <ele>1805.106390973</ele>
        <time>2014-12-12T14:13:28Z</time>
      </trkpt>
      <trkpt lat="45.41168" lon="5.91364">
        <ele>1664.367956189</ele>
        <time>2014-12-12T14:16:27Z</time>
      </trkpt>
      <trkpt lat="45.4117" lon="5.91361">
        <ele>1664.367956189</ele>
        <time>2014-12-12T14:16:32Z</time>
      </trkpt>
      <trkpt lat="45.41171" lon="5.91359">
        <ele>1664.367956189</ele>
        <time>2014-12-12T14:16:37Z</time>
      </trkpt>
      <trkpt lat="45.41171" lon="5.91359">
        <ele>1664.367956189</ele>
        <time>2014-12-12T14:16:42Z</time>
      </trkpt>
      <trkpt lat="45.41171" lon="5.91359">
        <ele>1664.367956189</ele>
        <time>2014-12-12T14:16:47Z</time>
      </trkpt>
      <trkpt lat="45.41169" lon="5.91351">
        <ele>1669.234162443</ele>
        <time>2014-12-12T14:16:52Z</time>
      </trkpt>
      <trkpt lat="45.41167" lon="5.91339">
        <ele>1675.757683125</ele>
        <time>2014-12-12T14:16:57Z</time>
      </trkpt>
      <trkpt lat="45.41164" lon="5.91331">
        <ele>1675.757683125</ele>
        <time>2014-12-12T14:17:02Z</time>
      </trkpt>
      <trkpt lat="45.4116" lon="5.91321">
        <ele>1682.754725833</ele>
        <time>2014-12-12T14:17:07Z</time>
      </trkpt>
      <trkpt lat="45.41157" lon="5.91317">
        <ele>1682.754725833</ele>
        <time>2014-12-12T14:17:12Z</time>
      </trkpt>
      <trkpt lat="45.41155" lon="5.91311">
        <ele>1689.155078978</ele>
        <time>2014-12-12T14:17:17Z</time>
      </trkpt>
      <trkpt lat="45.41153" lon="5.91304">
        <ele>1689.155078978</ele>
        <time>2014-12-12T14:17:22Z</time>
      </trkpt>
      <trkpt lat="45.41148" lon="5.91299">
        <ele>1695.301886638</ele>
        <time>2014-12-12T14:17:27Z</time>
      </trkpt>
      <trkpt lat="45.41143" lon="5.91294">
        <ele>1695.301886638</ele>
        <time>2014-12-12T14:17:32Z</time>
      </trkpt>
      <trkpt lat="45.41142" lon="5.91291">
        <ele>1695.301886638</ele>
        <time>2014-12-12T14:17:37Z</time>
      </trkpt>
      <trkpt lat="45.41137" lon="5.91288">
        <ele>1700.416794157</ele>
        <time>2014-12-12T14:17:42Z</time>
      </trkpt>
      <trkpt lat="45.41134" lon="5.91285">
        <ele>1700.416794157</ele>
        <time>2014-12-12T14:17:47Z</time>
      </trkpt>
      <trkpt lat="45.4113" lon="5.91282">
        <ele>1700.416794157</ele>
        <time>2014-12-12T14:17:52Z</time>
      </trkpt>
      <trkpt lat="45.41127" lon="5.91278">
        <ele>1705.14356532</ele>
        <time>2014-12-12T14:17:57Z</time>
      </trkpt>
      <trkpt lat="45.41122" lon="5.91279">
        <ele>1705.14356532</ele>
        <time>2014-12-12T14:18:02Z</time>
      </trkpt>
      <trkpt lat="45.41118" lon="5.9128">
        <ele>1708.892249766</ele>
        <time>2014-12-12T14:18:07Z</time>
      </trkpt>
      <trkpt lat="45.41114" lon="5.91281">
        <ele>1708.892249766</ele>
        <time>2014-12-12T14:18:12Z</time>
      </trkpt>
      <trkpt lat="45.41111" lon="5.91279">
        <ele>1708.892249766</ele>
        <time>2014-12-12T14:18:17Z</time>
      </trkpt>
      <trkpt lat="45.41108" lon="5.91276">
        <ele>1711.432885736</ele>
        <time>2014-12-12T14:18:22Z</time>
      </trkpt>
      <trkpt lat="45.41104" lon="5.9128">
        <ele>1711.432885736</ele>
        <time>2014-12-12T14:18:27Z</time>
      </trkpt>
      <trkpt lat="45.41099" lon="5.91283">
        <ele>1712.817459366</ele>
        <time>2014-12-12T14:18:32Z</time>
      </trkpt>
      <trkpt lat="45.41096" lon="5.91283">
        <ele>1712.817459366</ele>
        <time>2014-12-12T14:18:37Z</time>
      </trkpt>
      <trkpt lat="45.41092" lon="5.91281">
        <ele>1712.817459366</ele>
        <time>2014-12-12T14:18:42Z</time>
      </trkpt>
      <trkpt lat="45.41088" lon="5.91282">
        <ele>1713.335810684</ele>
        <time>2014-12-12T14:18:47Z</time>
      </trkpt>
      <trkpt lat="45.41084" lon="5.9128">
        <ele>1713.335810684</ele>
        <time>2014-12-12T14:18:52Z</time>
      </trkpt>
      <trkpt lat="45.41077" lon="5.91276">
        <ele>1712.806016633</ele>
        <time>2014-12-12T14:18:57Z</time>
      </trkpt>
      <trkpt lat="45.41074" lon="5.91269">
        <ele>1712.806016633</ele>
        <time>2014-12-12T14:19:02Z</time>
      </trkpt>
      <trkpt lat="45.4107" lon="5.91265">
        <ele>1711.592751676</ele>
        <time>2014-12-12T14:19:07Z</time>
      </trkpt>
      <trkpt lat="45.4107" lon="5.91263">
        <ele>1711.592751676</ele>
        <time>2014-12-12T14:19:12Z</time>
      </trkpt>
      <trkpt lat="45.4107" lon="5.91262">
        <ele>1711.592751676</ele>
        <time>2014-12-12T14:19:17Z</time>
      </trkpt>
      <trkpt lat="45.41066" lon="5.91257">
        <ele>1711.592751676</ele>
        <time>2014-12-12T14:19:22Z</time>
      </trkpt>
      <trkpt lat="45.41065" lon="5.91247">
        <ele>1710.039216019</ele>
        <time>2014-12-12T14:19:27Z</time>
      </trkpt>
      <trkpt lat="45.41062" lon="5.9124">
        <ele>1710.039216019</ele>
        <time>2014-12-12T14:19:32Z</time>
      </trkpt>
      <trkpt lat="45.41062" lon="5.91233">
        <ele>1708.285090786</ele>
        <time>2014-12-12T14:19:37Z</time>
      </trkpt>
      <trkpt lat="45.4106" lon="5.91228">
        <ele>1708.285090786</ele>
        <time>2014-12-12T14:19:42Z</time>
      </trkpt>
      <trkpt lat="45.4106" lon="5.91223">
        <ele>1708.285090786</ele>
        <time>2014-12-12T14:19:47Z</time>
      </trkpt>
      <trkpt lat="45.41058" lon="5.91217">
        <ele>1705.952877753</ele>
        <time>2014-12-12T14:19:52Z</time>
      </trkpt>
      <trkpt lat="45.41054" lon="5.91214">
        <ele>1705.952877753</ele>
        <time>2014-12-12T14:19:57Z</time>
      </trkpt>
      <trkpt lat="45.4105" lon="5.91212">
        <ele>1705.952877753</ele>
        <time>2014-12-12T14:20:02Z</time>
      </trkpt>
      <trkpt lat="45.41046" lon="5.91206">
        <ele>1703.667615842</ele>
        <time>2014-12-12T14:20:07Z</time>
      </trkpt>
      <trkpt lat="45.41043" lon="5.91202">
        <ele>1703.667615842</ele>
        <time>2014-12-12T14:20:12Z</time>
      </trkpt>
      <trkpt lat="45.41037" lon="5.91196">
        <ele>1701.486193322</ele>
        <time>2014-12-12T14:20:17Z</time>
      </trkpt>
      <trkpt lat="45.41035" lon="5.91193">
        <ele>1701.486193322</ele>
        <time>2014-12-12T14:20:22Z</time>
      </trkpt>
      <trkpt lat="45.41032" lon="5.91188">
        <ele>1701.486193322</ele>
        <time>2014-12-12T14:20:29Z</time>
      </trkpt>
      <trkpt lat="45.41031" lon="5.91182">
        <ele>1699.130144914</ele>
        <time>2014-12-12T14:20:33Z</time>
      </trkpt>
      <trkpt lat="45.41028" lon="5.91176">
        <ele>1699.130144914</ele>
        <time>2014-12-12T14:20:38Z</time>
      </trkpt>
      <trkpt lat="45.41027" lon="5.91171">
        <ele>1696.809991246</ele>
        <time>2014-12-12T14:20:42Z</time>
      </trkpt>
      <trkpt lat="45.41027" lon="5.91168">
        <ele>1696.809991246</ele>
        <time>2014-12-12T14:20:47Z</time>
      </trkpt>
      <trkpt lat="45.41025" lon="5.91169">
        <ele>1696.809991246</ele>
        <time>2014-12-12T14:20:54Z</time>
      </trkpt>
      <trkpt lat="45.41026" lon="5.91169">
        <ele>1696.809991246</ele>
        <time>2014-12-12T14:20:59Z</time>
      </trkpt>
      <trkpt lat="45.41025" lon="5.91169">
        <ele>1696.809991246</ele>
        <time>2014-12-12T14:21:02Z</time>
      </trkpt>
      <trkpt lat="45.41024" lon="5.9117">
        <ele>1696.809991246</ele>
        <time>2014-12-12T14:21:09Z</time>
      </trkpt>
      <trkpt lat="45.41022" lon="5.91171">
        <ele>1696.809991246</ele>
        <time>2014-12-12T14:21:12Z</time>
      </trkpt>
      <trkpt lat="45.41018" lon="5.91174">
        <ele>1693.786880453</ele>
        <time>2014-12-12T14:21:18Z</time>
      </trkpt>
      <trkpt lat="45.41014" lon="5.91177">
        <ele>1693.786880453</ele>
        <time>2014-12-12T14:21:24Z</time>
      </trkpt>
      <trkpt lat="45.41013" lon="5.91177">
        <ele>1693.786880453</ele>
        <time>2014-12-12T14:21:35Z</time>
      </trkpt>
      <trkpt lat="45.41001" lon="5.91197">
        <ele>1689.111624824</ele>
        <time>2014-12-12T14:21:44Z</time>
      </trkpt>
      <trkpt lat="45.40997" lon="5.91198">
        <ele>1689.111624824</ele>
        <time>2014-12-12T14:21:48Z</time>
      </trkpt>
      <trkpt lat="45.40993" lon="5.91199">
        <ele>1689.111624824</ele>
        <time>2014-12-12T14:21:52Z</time>
      </trkpt>
      <trkpt lat="45.40993" lon="5.91202">
        <ele>1684.609519228</ele>
        <time>2014-12-12T14:21:57Z</time>
      </trkpt>
      <trkpt lat="45.40991" lon="5.91202">
        <ele>1684.609519228</ele>
        <time>2014-12-12T14:22:03Z</time>
      </trkpt>
      <trkpt lat="45.40989" lon="5.91209">
        <ele>1684.609519228</ele>
        <time>2014-12-12T14:22:09Z</time>
      </trkpt>
      <trkpt lat="45.40987" lon="5.91213">
        <ele>1680.125465205</ele>
        <time>2014-12-12T14:22:14Z</time>
      </trkpt>
      <trkpt lat="45.40988" lon="5.91216">
        <ele>1680.125465205</ele>
        <time>2014-12-12T14:22:17Z</time>
      </trkpt>
      <trkpt lat="45.40988" lon="5.91216">
        <ele>1680.125465205</ele>
        <time>2014-12-12T14:22:27Z</time>
      </trkpt>
      <trkpt lat="45.40983" lon="5.91216">
        <ele>1680.125465205</ele>
        <time>2014-12-12T14:22:34Z</time>
      </trkpt>
      <trkpt lat="45.40982" lon="5.91216">
        <ele>1674.798294506</ele>
        <time>2014-12-12T14:22:41Z</time>
      </trkpt>
      <trkpt lat="45.40979" lon="5.91216">
        <ele>1674.798294506</ele>
        <time>2014-12-12T14:22:42Z</time>
      </trkpt>
      <trkpt lat="45.40977" lon="5.9122">
        <ele>1674.798294506</ele>
        <time>2014-12-12T14:22:49Z</time>
      </trkpt>
      <trkpt lat="45.40972" lon="5.91223">
        <ele>1668.714662541</ele>
        <time>2014-12-12T14:22:59Z</time>
      </trkpt>
      <trkpt lat="45.40972" lon="5.91225">
        <ele>1668.714662541</ele>
        <time>2014-12-12T14:23:02Z</time>
      </trkpt>
      <trkpt lat="45.40973" lon="5.91225">
        <ele>1668.714662541</ele>
        <time>2014-12-12T14:23:12Z</time>
      </trkpt>
      <trkpt lat="45.40971" lon="5.91229">
        <ele>1668.714662541</ele>
        <time>2014-12-12T14:23:12Z</time>
      </trkpt>
      <trkpt lat="45.40971" lon="5.9123">
        <ele>1668.714662541</ele>
        <time>2014-12-12T14:23:20Z</time>
      </trkpt>
      <trkpt lat="45.40973" lon="5.91229">
        <ele>1668.714662541</ele>
        <time>2014-12-12T14:23:22Z</time>
      </trkpt>
      <trkpt lat="45.40973" lon="5.91229">
        <ele>1668.714662541</ele>
        <time>2014-12-12T14:23:29Z</time>
      </trkpt>
      <trkpt lat="45.40973" lon="5.91229">
        <ele>1668.714662541</ele>
        <time>2014-12-12T14:23:36Z</time>
      </trkpt>
      <trkpt lat="45.40973" lon="5.91229">
        <ele>1668.714662541</ele>
        <time>2014-12-12T14:23:49Z</time>
      </trkpt>
      <trkpt lat="45.40973" lon="5.91229">
        <ele>1668.714662541</ele>
        <time>2014-12-12T14:23:52Z</time>
      </trkpt>
      <trkpt lat="45.40973" lon="5.91229">
        <ele>1668.714662541</ele>
        <time>2014-12-12T14:23:59Z</time>
      </trkpt>
      <trkpt lat="45.40973" lon="5.91229">
        <ele>1668.714662541</ele>
        <time>2014-12-12T14:24:02Z</time>
      </trkpt>
      <trkpt lat="45.40971" lon="5.91237">
        <ele>1662.087901176</ele>
        <time>2014-12-12T14:24:08Z</time>
      </trkpt>
      <trkpt lat="45.4097" lon="5.91239">
        <ele>1662.087901176</ele>
        <time>2014-12-12T14:24:12Z</time>
      </trkpt>
      <trkpt lat="45.40969" lon="5.91241">
        <ele>1662.087901176</ele>
        <time>2014-12-12T14:24:17Z</time>
      </trkpt>
      <trkpt lat="45.40968" lon="5.91241">
        <ele>1662.087901176</ele>
        <time>2014-12-12T14:24:22Z</time>
      </trkpt>
      <trkpt lat="45.40966" lon="5.91241">
        <ele>1662.087901176</ele>
        <time>2014-12-12T14:24:28Z</time>
      </trkpt>
      <trkpt lat="45.40961" lon="5.9124">
        <ele>1656.227138963</ele>
        <time>2014-12-12T14:24:33Z</time>
      </trkpt>
      <trkpt lat="45.40962" lon="5.91241">
        <ele>1656.227138963</ele>
        <time>2014-12-12T14:24:38Z</time>
      </trkpt>
      <trkpt lat="45.40961" lon="5.91241">
        <ele>1656.227138963</ele>
        <time>2014-12-12T14:24:44Z</time>
      </trkpt>
      <trkpt lat="45.40961" lon="5.91241">
        <ele>1656.227138963</ele>
        <time>2014-12-12T14:24:47Z</time>
      </trkpt>
      <trkpt lat="45.4096" lon="5.9124">
        <ele>1656.227138963</ele>
        <time>2014-12-12T14:24:53Z</time>
      </trkpt>
      <trkpt lat="45.40956" lon="5.91239">
        <ele>1656.227138963</ele>
        <time>2014-12-12T14:25:00Z</time>
      </trkpt>
      <trkpt lat="45.40946" lon="5.9123">
        <ele>1649.669186079</ele>
        <time>2014-12-12T14:25:04Z</time>
      </trkpt>
      <trkpt lat="45.40944" lon="5.91227">
        <ele>1649.669186079</ele>
        <time>2014-12-12T14:25:08Z</time>
      </trkpt>
      <trkpt lat="45.40939" lon="5.91223">
        <ele>1642.60909639</ele>
        <time>2014-12-12T14:25:14Z</time>
      </trkpt>
      <trkpt lat="45.40939" lon="5.91219">
        <ele>1642.60909639</ele>
        <time>2014-12-12T14:25:19Z</time>
      </trkpt>
      <trkpt lat="45.40936" lon="5.91217">
        <ele>1642.60909639</ele>
        <time>2014-12-12T14:25:23Z</time>
      </trkpt>
      <trkpt lat="45.40933" lon="5.91216">
        <ele>1642.60909639</ele>
        <time>2014-12-12T14:25:30Z</time>
      </trkpt>
      <trkpt lat="45.40926" lon="5.91209">
        <ele>1635.225269268</ele>
        <time>2014-12-12T14:25:34Z</time>
      </trkpt>
      <trkpt lat="45.40922" lon="5.91204">
        <ele>1635.225269268</ele>
        <time>2014-12-12T14:25:39Z</time>
      </trkpt>
      <trkpt lat="45.4092" lon="5.91201">
        <ele>1635.225269268</ele>
        <time>2014-12-12T14:25:44Z</time>
      </trkpt>
      <trkpt lat="45.4092" lon="5.91199">
        <ele>1627.961387813</ele>
        <time>2014-12-12T14:25:50Z</time>
      </trkpt>
      <trkpt lat="45.4092" lon="5.91199">
        <ele>1627.961387813</ele>
        <time>2014-12-12T14:25:53Z</time>
      </trkpt>
      <trkpt lat="45.40916" lon="5.91194">
        <ele>1627.961387813</ele>
        <time>2014-12-12T14:26:00Z</time>
      </trkpt>
      <trkpt lat="45.40913" lon="5.91193">
        <ele>1627.961387813</ele>
        <time>2014-12-12T14:26:04Z</time>
      </trkpt>
      <trkpt lat="45.40909" lon="5.91191">
        <ele>1620.677183123</ele>
        <time>2014-12-12T14:26:09Z</time>
      </trkpt>
      <trkpt lat="45.40907" lon="5.91189">
        <ele>1620.677183123</ele>
        <time>2014-12-12T14:26:13Z</time>
      </trkpt>
      <trkpt lat="45.40902" lon="5.91188">
        <ele>1620.677183123</ele>
        <time>2014-12-12T14:26:19Z</time>
      </trkpt>
      <trkpt lat="45.40901" lon="5.91184">
        <ele>1613.384619442</ele>
        <time>2014-12-12T14:26:22Z</time>
      </trkpt>
      <trkpt lat="45.40894" lon="5.91172">
        <ele>1606.799123444</ele>
        <time>2014-12-12T14:26:29Z</time>
      </trkpt>
      <trkpt lat="45.40893" lon="5.91168">
        <ele>1606.799123444</ele>
        <time>2014-12-12T14:26:34Z</time>
      </trkpt>
      <trkpt lat="45.40893" lon="5.91168">
        <ele>1606.799123444</ele>
        <time>2014-12-12T14:26:41Z</time>
      </trkpt>
      <trkpt lat="45.40884" lon="5.91168">
        <ele>1599.626242641</ele>
        <time>2014-12-12T14:26:48Z</time>
      </trkpt>
      <trkpt lat="45.40885" lon="5.91166">
        <ele>1599.626242641</ele>
        <time>2014-12-12T14:26:54Z</time>
      </trkpt>
      <trkpt lat="45.40885" lon="5.91166">
        <ele>1599.626242641</ele>
        <time>2014-12-12T14:26:59Z</time>
      </trkpt>
      <trkpt lat="45.40881" lon="5.91167">
        <ele>1599.626242641</ele>
        <time>2014-12-12T14:27:04Z</time>
      </trkpt>
      <trkpt lat="45.40879" lon="5.91165">
        <ele>1599.626242641</ele>
        <time>2014-12-12T14:27:08Z</time>
      </trkpt>
      <trkpt lat="45.40876" lon="5.91166">
        <ele>1591.210676894</ele>
        <time>2014-12-12T14:27:13Z</time>
      </trkpt>
      <trkpt lat="45.40875" lon="5.91166">
        <ele>1591.210676894</ele>
        <time>2014-12-12T14:27:17Z</time>
      </trkpt>
      <trkpt lat="45.40875" lon="5.91166">
        <ele>1591.210676894</ele>
        <time>2014-12-12T14:27:22Z</time>
      </trkpt>
      <trkpt lat="45.40867" lon="5.91167">
        <ele>1583.646632172</ele>
        <time>2014-12-12T14:27:29Z</time>
      </trkpt>
      <trkpt lat="45.4086" lon="5.91166">
        <ele>1583.646632172</ele>
        <time>2014-12-12T14:27:32Z</time>
      </trkpt>
      <trkpt lat="45.4086" lon="5.91158">
        <ele>1576.479696059</ele>
        <time>2014-12-12T14:27:37Z</time>
      </trkpt>
      <trkpt lat="45.40857" lon="5.91158">
        <ele>1576.479696059</ele>
        <time>2014-12-12T14:27:44Z</time>
      </trkpt>
      <trkpt lat="45.40846" lon="5.91155">
        <ele>1569.566890663</ele>
        <time>2014-12-12T14:27:47Z</time>
      </trkpt>
      <trkpt lat="45.40845" lon="5.91158">
        <ele>1569.566890663</ele>
        <time>2014-12-12T14:27:53Z</time>
      </trkpt>
      <trkpt lat="45.40844" lon="5.91162">
        <ele>1569.566890663</ele>
        <time>2014-12-12T14:28:00Z</time>
      </trkpt>
      <trkpt lat="45.40842" lon="5.91166">
        <ele>1569.566890663</ele>
        <time>2014-12-12T14:28:02Z</time>
      </trkpt>
      <trkpt lat="45.40832" lon="5.91169">
        <ele>1562.334238087</ele>
        <time>2014-12-12T14:28:07Z</time>
      </trkpt>
      <trkpt lat="45.40835" lon="5.91172">
        <ele>1562.334238087</ele>
        <time>2014-12-12T14:28:13Z</time>
      </trkpt>
      <trkpt lat="45.40834" lon="5.91176">
        <ele>1562.334238087</ele>
        <time>2014-12-12T14:28:20Z</time>
      </trkpt>
      <trkpt lat="45.4084" lon="5.91199">
        <ele>1553.064983845</ele>
        <time>2014-12-12T14:28:38Z</time>
      </trkpt>
      <trkpt lat="45.40846" lon="5.91232">
        <ele>1543.977921364</ele>
        <time>2014-12-12T14:28:59Z</time>
      </trkpt>
      <trkpt lat="45.40846" lon="5.91236">
        <ele>1543.977921364</ele>
        <time>2014-12-12T14:29:03Z</time>
      </trkpt>
      <trkpt lat="45.4085" lon="5.91258">
        <ele>1535.537976422</ele>
        <time>2014-12-12T14:29:13Z</time>
      </trkpt>
      <trkpt lat="45.40843" lon="5.91266">
        <ele>1535.537976422</ele>
        <time>2014-12-12T14:29:19Z</time>
      </trkpt>
      <trkpt lat="45.40844" lon="5.91281">
        <ele>1527.433321793</ele>
        <time>2014-12-12T14:29:29Z</time>
      </trkpt>
      <trkpt lat="45.40844" lon="5.91282">
        <ele>1527.433321793</ele>
        <time>2014-12-12T14:29:32Z</time>
      </trkpt>
      <trkpt lat="45.40837" lon="5.91308">
        <ele>1519.815592133</ele>
        <time>2014-12-12T14:29:43Z</time>
      </trkpt>
      <trkpt lat="45.40821" lon="5.91309">
        <ele>1513.122397069</ele>
        <time>2014-12-12T14:29:58Z</time>
      </trkpt>
      <trkpt lat="45.40818" lon="5.91305">
        <ele>1513.122397069</ele>
        <time>2014-12-12T14:30:02Z</time>
      </trkpt>
      <trkpt lat="45.40814" lon="5.91296">
        <ele>1507.304283114</ele>
        <time>2014-12-12T14:30:10Z</time>
      </trkpt>
      <trkpt lat="45.40813" lon="5.91292">
        <ele>1507.304283114</ele>
        <time>2014-12-12T14:30:12Z</time>
      </trkpt>
      <trkpt lat="45.40813" lon="5.91284">
        <ele>1507.304283114</ele>
        <time>2014-12-12T14:30:17Z</time>
      </trkpt>
      <trkpt lat="45.40812" lon="5.91285">
        <ele>1502.308377829</ele>
        <time>2014-12-12T14:30:27Z</time>
      </trkpt>
      <trkpt lat="45.40808" lon="5.91288">
        <ele>1502.308377829</ele>
        <time>2014-12-12T14:30:32Z</time>
      </trkpt>
      <trkpt lat="45.40807" lon="5.91288">
        <ele>1502.308377829</ele>
        <time>2014-12-12T14:30:37Z</time>
      </trkpt>
      <trkpt lat="45.40806" lon="5.91288">
        <ele>1502.308377829</ele>
        <time>2014-12-12T14:30:43Z</time>
      </trkpt>
      <trkpt lat="45.40806" lon="5.91288">
        <ele>1502.308377829</ele>
        <time>2014-12-12T14:30:48Z</time>
      </trkpt>
      <trkpt lat="45.40787" lon="5.91297">
        <ele>1497.325128338</ele>
        <time>2014-12-12T14:30:58Z</time>
      </trkpt>
      <trkpt lat="45.40784" lon="5.91296">
        <ele>1497.325128338</ele>
        <time>2014-12-12T14:31:08Z</time>
      </trkpt>
      <trkpt lat="45.40781" lon="5.91292">
        <ele>1497.325128338</ele>
        <time>2014-12-12T14:31:12Z</time>
      </trkpt>
      <trkpt lat="45.40779" lon="5.91291">
        <ele>1493.565475394</ele>
        <time>2014-12-12T14:31:21Z</time>
      </trkpt>
      <trkpt lat="45.40766" lon="5.91293">
        <ele>1489.123487895</ele>
        <time>2014-12-12T14:31:34Z</time>
      </trkpt>
      <trkpt lat="45.40765" lon="5.91292">
        <ele>1489.123487895</ele>
        <time>2014-12-12T14:31:37Z</time>
      </trkpt>
      <trkpt lat="45.4076" lon="5.91282">
        <ele>1484.354992498</ele>
        <time>2014-12-12T14:31:43Z</time>
      </trkpt>
      <trkpt lat="45.40752" lon="5.91274">
        <ele>1480.493814133</ele>
        <time>2014-12-12T14:31:48Z</time>
      </trkpt>
      <trkpt lat="45.40746" lon="5.91262">
        <ele>1477.316098129</ele>
        <time>2014-12-12T14:31:54Z</time>
      </trkpt>
      <trkpt lat="45.40744" lon="5.91262">
        <ele>1477.316098129</ele>
        <time>2014-12-12T14:31:59Z</time>
      </trkpt>
      <trkpt lat="45.4074" lon="5.91257">
        <ele>1477.316098129</ele>
        <time>2014-12-12T14:32:05Z</time>
      </trkpt>
      <trkpt lat="45.40733" lon="5.91254">
        <ele>1475.063950756</ele>
        <time>2014-12-12T14:32:18Z</time>
      </trkpt>
      <trkpt lat="45.40733" lon="5.91254">
        <ele>1475.063950756</ele>
        <time>2014-12-12T14:32:25Z</time>
      </trkpt>
      <trkpt lat="45.40732" lon="5.91253">
        <ele>1475.063950756</ele>
        <time>2014-12-12T14:32:27Z</time>
      </trkpt>
      <trkpt lat="45.40731" lon="5.91254">
        <ele>1475.063950756</ele>
        <time>2014-12-12T14:32:33Z</time>
      </trkpt>
      <trkpt lat="45.40708" lon="5.91236">
        <ele>1471.556346564</ele>
        <time>2014-12-12T14:33:04Z</time>
      </trkpt>
      <trkpt lat="45.40702" lon="5.91227">
        <ele>1471.556346564</ele>
        <time>2014-12-12T14:33:07Z</time>
      </trkpt>
      <trkpt lat="45.40697" lon="5.91219">
        <ele>1468.389814064</ele>
        <time>2014-12-12T14:33:14Z</time>
      </trkpt>
      <trkpt lat="45.40694" lon="5.91214">
        <ele>1468.389814064</ele>
        <time>2014-12-12T14:33:18Z</time>
      </trkpt>
      <trkpt lat="45.40693" lon="5.91212">
        <ele>1468.389814064</ele>
        <time>2014-12-12T14:33:25Z</time>
      </trkpt>
      <trkpt lat="45.4069" lon="5.91202">
        <ele>1465.533379091</ele>
        <time>2014-12-12T14:33:28Z</time>
      </trkpt>
      <trkpt lat="45.40686" lon="5.91195">
        <ele>1465.533379091</ele>
        <time>2014-12-12T14:33:34Z</time>
      </trkpt>
      <trkpt lat="45.40681" lon="5.91191">
        <ele>1462.808794837</ele>
        <time>2014-12-12T14:33:37Z</time>
      </trkpt>
      <trkpt lat="45.40679" lon="5.91181">
        <ele>1462.808794837</ele>
        <time>2014-12-12T14:33:42Z</time>
      </trkpt>
      <trkpt lat="45.40675" lon="5.9117">
        <ele>1461.83532517</ele>
        <time>2014-12-12T14:33:48Z</time>
      </trkpt>
      <trkpt lat="45.40672" lon="5.91164">
        <ele>1461.83532517</ele>
        <time>2014-12-12T14:33:54Z</time>
      </trkpt>
      <trkpt lat="45.40667" lon="5.91147">
        <ele>1461.423373628</ele>
        <time>2014-12-12T14:34:03Z</time>
      </trkpt>
      <trkpt lat="45.40666" lon="5.91144">
        <ele>1461.423373628</ele>
        <time>2014-12-12T14:34:11Z</time>
      </trkpt>
      <trkpt lat="45.40667" lon="5.91111">
        <ele>1461.369027703</ele>
        <time>2014-12-12T14:34:23Z</time>
      </trkpt>
      <trkpt lat="45.40667" lon="5.91111">
        <ele>1461.369027703</ele>
        <time>2014-12-12T14:34:28Z</time>
      </trkpt>
      <trkpt lat="45.40665" lon="5.91106">
        <ele>1461.369027703</ele>
        <time>2014-12-12T14:34:33Z</time>
      </trkpt>
      <trkpt lat="45.40663" lon="5.91104">
        <ele>1461.369027703</ele>
        <time>2014-12-12T14:34:37Z</time>
      </trkpt>
      <trkpt lat="45.40662" lon="5.91095">
        <ele>1460.010100119</ele>
        <time>2014-12-12T14:34:45Z</time>
      </trkpt>
      <trkpt lat="45.4066" lon="5.91089">
        <ele>1460.010100119</ele>
        <time>2014-12-12T14:34:47Z</time>
      </trkpt>
      <trkpt lat="45.40653" lon="5.9109">
        <ele>1458.474824285</ele>
        <time>2014-12-12T14:34:53Z</time>
      </trkpt>
      <trkpt lat="45.40652" lon="5.91088">
        <ele>1458.474824285</ele>
        <time>2014-12-12T14:34:59Z</time>
      </trkpt>
      <trkpt lat="45.40653" lon="5.91086">
        <ele>1458.474824285</ele>
        <time>2014-12-12T14:35:05Z</time>
      </trkpt>
      <trkpt lat="45.40644" lon="5.9108">
        <ele>1457.064192498</ele>
        <time>2014-12-12T14:35:13Z</time>
      </trkpt>
      <trkpt lat="45.40643" lon="5.91079">
        <ele>1457.064192498</ele>
        <time>2014-12-12T14:35:19Z</time>
      </trkpt>
      <trkpt lat="45.40642" lon="5.91079">
        <ele>1457.064192498</ele>
        <time>2014-12-12T14:35:23Z</time>
      </trkpt>
      <trkpt lat="45.40641" lon="5.9108">
        <ele>1457.064192498</ele>
        <time>2014-12-12T14:35:27Z</time>
      </trkpt>
      <trkpt lat="45.40638" lon="5.91075">
        <ele>1457.064192498</ele>
        <time>2014-12-12T14:35:32Z</time>
      </trkpt>
      <trkpt lat="45.40633" lon="5.91074">
        <ele>1454.882317253</ele>
        <time>2014-12-12T14:35:40Z</time>
      </trkpt>
      <trkpt lat="45.40621" lon="5.91068">
        <ele>1453.301256885</ele>
        <time>2014-12-12T14:35:42Z</time>
      </trkpt>
      <trkpt lat="45.40617" lon="5.9106">
        <ele>1453.301256885</ele>
        <time>2014-12-12T14:35:50Z</time>
      </trkpt>
      <trkpt lat="45.40615" lon="5.91054">
        <ele>1451.974996744</ele>
        <time>2014-12-12T14:35:52Z</time>
      </trkpt>
      <trkpt lat="45.40611" lon="5.91049">
        <ele>1451.974996744</ele>
        <time>2014-12-12T14:35:58Z</time>
      </trkpt>
      <trkpt lat="45.40607" lon="5.91046">
        <ele>1450.293688503</ele>
        <time>2014-12-12T14:36:03Z</time>
      </trkpt>
      <trkpt lat="45.40608" lon="5.91045">
        <ele>1450.293688503</ele>
        <time>2014-12-12T14:36:07Z</time>
      </trkpt>
      <trkpt lat="45.40607" lon="5.91045">
        <ele>1450.293688503</ele>
        <time>2014-12-12T14:36:15Z</time>
      </trkpt>
      <trkpt lat="45.40604" lon="5.91043">
        <ele>1450.293688503</ele>
        <time>2014-12-12T14:36:29Z</time>
      </trkpt>
      <trkpt lat="45.40604" lon="5.91042">
        <ele>1450.293688503</ele>
        <time>2014-12-12T14:36:34Z</time>
      </trkpt>
      <trkpt lat="45.40602" lon="5.91039">
        <ele>1450.293688503</ele>
        <time>2014-12-12T14:36:37Z</time>
      </trkpt>
      <trkpt lat="45.40602" lon="5.91038">
        <ele>1449.587714713</ele>
        <time>2014-12-12T14:36:42Z</time>
      </trkpt>
      <trkpt lat="45.40602" lon="5.91037">
        <ele>1449.587714713</ele>
        <time>2014-12-12T14:36:47Z</time>
      </trkpt>
      <trkpt lat="45.40602" lon="5.91037">
        <ele>1449.587714713</ele>
        <time>2014-12-12T14:36:53Z</time>
      </trkpt>
      <trkpt lat="45.40602" lon="5.91037">
        <ele>1449.587714713</ele>
        <time>2014-12-12T14:36:57Z</time>
      </trkpt>
      <trkpt lat="45.40602" lon="5.91038">
        <ele>1449.587714713</ele>
        <time>2014-12-12T14:37:03Z</time>
      </trkpt>
      <trkpt lat="45.40602" lon="5.91038">
        <ele>1449.587714713</ele>
        <time>2014-12-12T14:37:08Z</time>
      </trkpt>
      <trkpt lat="45.40602" lon="5.91038">
        <ele>1449.587714713</ele>
        <time>2014-12-12T14:37:12Z</time>
      </trkpt>
      <trkpt lat="45.40602" lon="5.91038">
        <ele>1449.587714713</ele>
        <time>2014-12-12T14:37:17Z</time>
      </trkpt>
      <trkpt lat="45.40602" lon="5.91038">
        <ele>1449.587714713</ele>
        <time>2014-12-12T14:37:23Z</time>
      </trkpt>
      <trkpt lat="45.40602" lon="5.91038">
        <ele>1449.587714713</ele>
        <time>2014-12-12T14:37:27Z</time>
      </trkpt>
      <trkpt lat="45.40602" lon="5.91038">
        <ele>1449.587714713</ele>
        <time>2014-12-12T14:37:33Z</time>
      </trkpt>
      <trkpt lat="45.40602" lon="5.91038">
        <ele>1449.587714713</ele>
        <time>2014-12-12T14:37:41Z</time>
      </trkpt>
      <trkpt lat="45.40603" lon="5.9104">
        <ele>1449.587714713</ele>
        <time>2014-12-12T14:38:04Z</time>
      </trkpt>
      <trkpt lat="45.40603" lon="5.9104">
        <ele>1449.587714713</ele>
        <time>2014-12-12T14:38:08Z</time>
      </trkpt>
      <trkpt lat="45.40603" lon="5.9104">
        <ele>1449.587714713</ele>
        <time>2014-12-12T14:38:13Z</time>
      </trkpt>
      <trkpt lat="45.40603" lon="5.91041">
        <ele>1449.587714713</ele>
        <time>2014-12-12T14:38:19Z</time>
      </trkpt>
      <trkpt lat="45.40602" lon="5.91041">
        <ele>1449.587714713</ele>
        <time>2014-12-12T14:38:24Z</time>
      </trkpt>
      <trkpt lat="45.40601" lon="5.91035">
        <ele>1449.587714713</ele>
        <time>2014-12-12T14:38:28Z</time>
      </trkpt>
      <trkpt lat="45.40568" lon="5.90999">
        <ele>1448.610751136</ele>
        <time>2014-12-12T14:39:03Z</time>
      </trkpt>
      <trkpt lat="45.40515" lon="5.90934">
        <ele>1446.505597434</ele>
        <time>2014-12-12T14:40:02Z</time>
      </trkpt>
      <trkpt lat="45.40508" lon="5.90932">
        <ele>1446.505597434</ele>
        <time>2014-12-12T14:40:07Z</time>
      </trkpt>
      <trkpt lat="45.40507" lon="5.90928">
        <ele>1444.368039432</ele>
        <time>2014-12-12T14:40:16Z</time>
      </trkpt>
      <trkpt lat="45.40506" lon="5.90923">
        <ele>1444.368039432</ele>
        <time>2014-12-12T14:40:17Z</time>
      </trkpt>
      <trkpt lat="45.40514" lon="5.90857">
        <ele>1443.78767613</ele>
        <time>2014-12-12T14:41:00Z</time>
      </trkpt>
      <trkpt lat="45.4051" lon="5.90846">
        <ele>1443.78767613</ele>
        <time>2014-12-12T14:41:02Z</time>
      </trkpt>
      <trkpt lat="45.40509" lon="5.90844">
        <ele>1443.046501065</ele>
        <time>2014-12-12T14:41:12Z</time>
      </trkpt>
      <trkpt lat="45.40509" lon="5.90819">
        <ele>1441.425764027</ele>
        <time>2014-12-12T14:41:33Z</time>
      </trkpt>
      <trkpt lat="45.40497" lon="5.90804">
        <ele>1439.418960491</ele>
        <time>2014-12-12T14:41:48Z</time>
      </trkpt>
      <trkpt lat="45.40494" lon="5.90801">
        <ele>1439.418960491</ele>
        <time>2014-12-12T14:42:00Z</time>
      </trkpt>
      <trkpt lat="45.4049" lon="5.90792">
        <ele>1436.905770058</ele>
        <time>2014-12-12T14:42:05Z</time>
      </trkpt>
      <trkpt lat="45.40476" lon="5.90769">
        <ele>1434.209169985</ele>
        <time>2014-12-12T14:42:29Z</time>
      </trkpt>
      <trkpt lat="45.40467" lon="5.90746">
        <ele>1431.340000994</ele>
        <time>2014-12-12T14:42:52Z</time>
      </trkpt>
      <trkpt lat="45.40459" lon="5.90738">
        <ele>1429.318460551</ele>
        <time>2014-12-12T14:43:02Z</time>
      </trkpt>
      <trkpt lat="45.40458" lon="5.90738">
        <ele>1429.318460551</ele>
        <time>2014-12-12T14:43:08Z</time>
      </trkpt>
      <trkpt lat="45.40457" lon="5.90739">
        <ele>1429.318460551</ele>
        <time>2014-12-12T14:43:14Z</time>
      </trkpt>
      <trkpt lat="45.40457" lon="5.90739">
        <ele>1429.318460551</ele>
        <time>2014-12-12T14:43:17Z</time>
      </trkpt>
      <trkpt lat="45.40456" lon="5.90737">
        <ele>1429.318460551</ele>
        <time>2014-12-12T14:43:24Z</time>
      </trkpt>
      <trkpt lat="45.40455" lon="5.90737">
        <ele>1429.318460551</ele>
        <time>2014-12-12T14:43:30Z</time>
      </trkpt>
      <trkpt lat="45.40456" lon="5.90734">
        <ele>1429.318460551</ele>
        <time>2014-12-12T14:43:32Z</time>
      </trkpt>
      <trkpt lat="45.40453" lon="5.90729">
        <ele>1426.779675778</ele>
        <time>2014-12-12T14:43:38Z</time>
      </trkpt>
      <trkpt lat="45.40452" lon="5.90724">
        <ele>1426.779675778</ele>
        <time>2014-12-12T14:43:42Z</time>
      </trkpt>
      <trkpt lat="45.40439" lon="5.90713">
        <ele>1424.912593113</ele>
        <time>2014-12-12T14:44:04Z</time>
      </trkpt>
      <trkpt lat="45.40432" lon="5.90709">
        <ele>1424.912593113</ele>
        <time>2014-12-12T14:44:17Z</time>
      </trkpt>
      <trkpt lat="45.40433" lon="5.90707">
        <ele>1422.942363285</ele>
        <time>2014-12-12T14:44:24Z</time>
      </trkpt>
      <trkpt lat="45.40431" lon="5.90704">
        <ele>1422.942363285</ele>
        <time>2014-12-12T14:44:27Z</time>
      </trkpt>
      <trkpt lat="45.4043" lon="5.90701">
        <ele>1422.942363285</ele>
        <time>2014-12-12T14:44:35Z</time>
      </trkpt>
      <trkpt lat="45.40429" lon="5.90695">
        <ele>1421.016750725</ele>
        <time>2014-12-12T14:44:37Z</time>
      </trkpt>
      <trkpt lat="45.40425" lon="5.90688">
        <ele>1421.016750725</ele>
        <time>2014-12-12T14:44:42Z</time>
      </trkpt>
      <trkpt lat="45.40427" lon="5.90682">
        <ele>1418.984320788</ele>
        <time>2014-12-12T14:44:51Z</time>
      </trkpt>
      <trkpt lat="45.40425" lon="5.90674">
        <ele>1418.984320788</ele>
        <time>2014-12-12T14:44:52Z</time>
      </trkpt>
      <trkpt lat="45.4042" lon="5.9067">
        <ele>1417.281933518</ele>
        <time>2014-12-12T14:45:00Z</time>
      </trkpt>
      <trkpt lat="45.40394" lon="5.90628">
        <ele>1411.988021549</ele>
        <time>2014-12-12T14:45:47Z</time>
      </trkpt>
      <trkpt lat="45.40378" lon="5.90608">
        <ele>1405.246573791</ele>
        <time>2014-12-12T14:46:23Z</time>
      </trkpt>
      <trkpt lat="45.40374" lon="5.90603">
        <ele>1405.246573791</ele>
        <time>2014-12-12T14:46:29Z</time>
      </trkpt>
      <trkpt lat="45.40359" lon="5.90562">
        <ele>1400.202156511</ele>
        <time>2014-12-12T14:47:23Z</time>
      </trkpt>
      <trkpt lat="45.40359" lon="5.9056">
        <ele>1400.202156511</ele>
        <time>2014-12-12T14:47:29Z</time>
      </trkpt>
      <trkpt lat="45.40353" lon="5.90552">
        <ele>1393.995717841</ele>
        <time>2014-12-12T14:47:42Z</time>
      </trkpt>
      <trkpt lat="45.40352" lon="5.9055">
        <ele>1393.995717841</ele>
        <time>2014-12-12T14:47:49Z</time>
      </trkpt>
      <trkpt lat="45.40347" lon="5.90548">
        <ele>1393.995717841</ele>
        <time>2014-12-12T14:48:03Z</time>
      </trkpt>
      <trkpt lat="45.40342" lon="5.90543">
        <ele>1386.14444899</ele>
        <time>2014-12-12T14:48:22Z</time>
      </trkpt>
      <trkpt lat="45.40344" lon="5.90508">
        <ele>1379.955518489</ele>
        <time>2014-12-12T14:48:50Z</time>
      </trkpt>
      <trkpt lat="45.4035" lon="5.90505">
        <ele>1379.955518489</ele>
        <time>2014-12-12T14:48:54Z</time>
      </trkpt>
      <trkpt lat="45.4035" lon="5.90504">
        <ele>1379.955518489</ele>
        <time>2014-12-12T14:48:58Z</time>
      </trkpt>
      <trkpt lat="45.40355" lon="5.90503">
        <ele>1374.306086217</ele>
        <time>2014-12-12T14:49:04Z</time>
      </trkpt>
      <trkpt lat="45.40358" lon="5.90468">
        <ele>1368.731074832</ele>
        <time>2014-12-12T14:49:47Z</time>
      </trkpt>
      <trkpt lat="45.40363" lon="5.90466">
        <ele>1368.731074832</ele>
        <time>2014-12-12T14:50:00Z</time>
      </trkpt>
      <trkpt lat="45.40366" lon="5.90463">
        <ele>1368.731074832</ele>
        <time>2014-12-12T14:50:03Z</time>
      </trkpt>
      <trkpt lat="45.40361" lon="5.90433">
        <ele>1355.875700615</ele>
        <time>2014-12-12T14:50:42Z</time>
      </trkpt>
      <trkpt lat="45.40352" lon="5.90417">
        <ele>1343.80295634</ele>
        <time>2014-12-12T14:51:03Z</time>
      </trkpt>
      <trkpt lat="45.40351" lon="5.90415">
        <ele>1343.80295634</ele>
        <time>2014-12-12T14:51:11Z</time>
      </trkpt>
      <trkpt lat="45.4035" lon="5.90414">
        <ele>1343.80295634</ele>
        <time>2014-12-12T14:52:00Z</time>
      </trkpt>
      <trkpt lat="45.40354" lon="5.90345">
        <ele>1329.884002337</ele>
        <time>2014-12-12T14:52:03Z</time>
      </trkpt>
      <trkpt lat="45.40342" lon="5.90285">
        <ele>1315.582809365</ele>
        <time>2014-12-12T14:52:49Z</time>
      </trkpt>
      <trkpt lat="45.40342" lon="5.90285">
        <ele>1315.582809365</ele>
        <time>2014-12-12T14:52:53Z</time>
      </trkpt>
      <trkpt lat="45.40338" lon="5.90286">
        <ele>1315.582809365</ele>
        <time>2014-12-12T14:52:59Z</time>
      </trkpt>
      <trkpt lat="45.40336" lon="5.90285">
        <ele>1315.582809365</ele>
        <time>2014-12-12T14:53:04Z</time>
      </trkpt>
      <trkpt lat="45.40332" lon="5.9028">
        <ele>1300.237086796</ele>
        <time>2014-12-12T14:53:08Z</time>
      </trkpt>
      <trkpt lat="45.4033" lon="5.90274">
        <ele>1300.237086796</ele>
        <time>2014-12-12T14:53:13Z</time>
      </trkpt>
      <trkpt lat="45.40329" lon="5.90269">
        <ele>1300.237086796</ele>
        <time>2014-12-12T14:53:19Z</time>
      </trkpt>
      <trkpt lat="45.40329" lon="5.90264">
        <ele>1285.5436591</ele>
        <time>2014-12-12T14:53:23Z</time>
      </trkpt>
      <trkpt lat="45.40327" lon="5.90248">
        <ele>1272.062529838</ele>
        <time>2014-12-12T14:53:42Z</time>
      </trkpt>
      <trkpt lat="45.40327" lon="5.90248">
        <ele>1272.062529838</ele>
        <time>2014-12-12T14:53:50Z</time>
      </trkpt>
      <trkpt lat="45.40324" lon="5.90232">
        <ele>1259.443153347</ele>
        <time>2014-12-12T14:54:04Z</time>
      </trkpt>
      <trkpt lat="45.40337" lon="5.90138">
        <ele>1247.502029702</ele>
        <time>2014-12-12T14:55:04Z</time>
      </trkpt>
      <trkpt lat="45.40345" lon="5.9003">
        <ele>1231.451725543</ele>
        <time>2014-12-12T14:56:38Z</time>
      </trkpt>
      <trkpt lat="45.40345" lon="5.9003">
        <ele>1231.451725543</ele>
        <time>2014-12-12T14:56:46Z</time>
      </trkpt>
      <trkpt lat="45.40345" lon="5.9003">
        <ele>1231.451725543</ele>
        <time>2014-12-12T14:56:47Z</time>
      </trkpt>
      <trkpt lat="45.40345" lon="5.9003">
        <ele>1231.451725543</ele>
        <time>2014-12-12T14:56:54Z</time>
      </trkpt>
      <trkpt lat="45.40345" lon="5.9003">
        <ele>1231.451725543</ele>
        <time>2014-12-12T14:56:57Z</time>
      </trkpt>
      <trkpt lat="45.40345" lon="5.9003">
        <ele>1231.451725543</ele>
        <time>2014-12-12T14:57:07Z</time>
      </trkpt>
      <trkpt lat="45.40343" lon="5.90024">
        <ele>1231.451725543</ele>
        <time>2014-12-12T14:58:37Z</time>
      </trkpt>
      <trkpt lat="45.40344" lon="5.90018">
        <ele>1216.674727818</ele>
        <time>2014-12-12T14:58:57Z</time>
      </trkpt>
      <trkpt lat="45.40346" lon="5.90018">
        <ele>1216.674727818</ele>
        <time>2014-12-12T14:59:08Z</time>
      </trkpt>
      <trkpt lat="45.40344" lon="5.9">
        <ele>1203.394050678</ele>
        <time>2014-12-12T14:59:17Z</time>
      </trkpt>
      <trkpt lat="45.40345" lon="5.89996">
        <ele>1203.394050678</ele>
        <time>2014-12-12T14:59:24Z</time>
      </trkpt>
      <trkpt lat="45.40346" lon="5.8999">
        <ele>1203.394050678</ele>
        <time>2014-12-12T14:59:32Z</time>
      </trkpt>
      <trkpt lat="45.40357" lon="5.89947">
        <ele>1189.504259438</ele>
        <time>2014-12-12T14:59:54Z</time>
      </trkpt>
      <trkpt lat="45.4036" lon="5.89944">
        <ele>1189.504259438</ele>
        <time>2014-12-12T14:59:57Z</time>
      </trkpt>
      <trkpt lat="45.40366" lon="5.89929">
        <ele>1176.516563126</ele>
        <time>2014-12-12T15:00:02Z</time>
      </trkpt>
      <trkpt lat="45.40398" lon="5.89822">
        <ele>1160.781254237</ele>
        <time>2014-12-12T15:01:05Z</time>
      </trkpt>
      <trkpt lat="45.40434" lon="5.89712">
        <ele>1143.826351899</ele>
        <time>2014-12-12T15:02:03Z</time>
      </trkpt>
      <trkpt lat="45.40435" lon="5.89708">
        <ele>1143.826351899</ele>
        <time>2014-12-12T15:02:09Z</time>
      </trkpt>
      <trkpt lat="45.40459" lon="5.89599">
        <ele>1130.962461013</ele>
        <time>2014-12-12T15:03:02Z</time>
      </trkpt>
      <trkpt lat="45.40459" lon="5.89599">
        <ele>1130.962461013</ele>
        <time>2014-12-12T15:03:11Z</time>
      </trkpt>
      <trkpt lat="45.40524" lon="5.89543">
        <ele>1118.447232717</ele>
        <time>2014-12-12T15:04:02Z</time>
      </trkpt>
      <trkpt lat="45.4057" lon="5.89508">
        <ele>1106.992625117</ele>
        <time>2014-12-12T15:04:47Z</time>
      </trkpt>
      <trkpt lat="45.40591" lon="5.89522">
        <ele>1096.245407325</ele>
        <time>2014-12-12T15:05:03Z</time>
      </trkpt>
      <trkpt lat="45.40591" lon="5.89522">
        <ele>1096.245407325</ele>
        <time>2014-12-12T15:05:35Z</time>
      </trkpt>
      <trkpt lat="45.40662" lon="5.89538">
        <ele>1086.596340454</ele>
        <time>2014-12-12T15:06:02Z</time>
      </trkpt>
      <trkpt lat="45.40745" lon="5.89527">
        <ele>1078.259498484</ele>
        <time>2014-12-12T15:07:02Z</time>
      </trkpt>
      <trkpt lat="45.4082" lon="5.89489">
        <ele>1072.870188635</ele>
        <time>2014-12-12T15:08:04Z</time>
      </trkpt>
      <trkpt lat="45.40862" lon="5.89401">
        <ele>1065.160451683</ele>
        <time>2014-12-12T15:08:58Z</time>
      </trkpt>
      <trkpt lat="45.40862" lon="5.89393">
        <ele>1065.160451683</ele>
        <time>2014-12-12T15:09:10Z</time>
      </trkpt>
      <trkpt lat="45.40889" lon="5.89296">
        <ele>1057.750293595</ele>
        <time>2014-12-12T15:10:05Z</time>
      </trkpt>
      <trkpt lat="45.40943" lon="5.89247">
        <ele>1051.912658257</ele>
        <time>2014-12-12T15:11:10Z</time>
      </trkpt>
      <trkpt lat="45.40973" lon="5.89215">
        <ele>1048.101407017</ele>
        <time>2014-12-12T15:11:35Z</time>
      </trkpt>
      <trkpt lat="45.41006" lon="5.89186">
        <ele>1046.730953159</ele>
        <time>2014-12-12T15:11:58Z</time>
      </trkpt>
      <trkpt lat="45.41039" lon="5.8908">
        <ele>1045.872208206</ele>
        <time>2014-12-12T15:13:04Z</time>
      </trkpt>
      <trkpt lat="45.41039" lon="5.89075">
        <ele>1045.872208206</ele>
        <time>2014-12-12T15:13:11Z</time>
      </trkpt>
      <trkpt lat="45.41043" lon="5.89009">
        <ele>1045.177332986</ele>
        <time>2014-12-12T15:13:37Z</time>
      </trkpt>
      <trkpt lat="45.41043" lon="5.89007">
        <ele>1045.177332986</ele>
        <time>2014-12-12T15:13:47Z</time>
      </trkpt>
      <trkpt lat="45.41051" lon="5.88963">
        <ele>1045.4763207</ele>
        <time>2014-12-12T15:14:04Z</time>
      </trkpt>
      <trkpt lat="45.41061" lon="5.88944">
        <ele>1045.373581359</ele>
        <time>2014-12-12T15:14:25Z</time>
      </trkpt>
      <trkpt lat="45.41064" lon="5.88942">
        <ele>1045.373581359</ele>
        <time>2014-12-12T15:14:32Z</time>
      </trkpt>
      <trkpt lat="45.41072" lon="5.8892">
        <ele>1045.018303155</ele>
        <time>2014-12-12T15:14:41Z</time>
      </trkpt>
      <trkpt lat="45.41083" lon="5.88907">
        <ele>1045.558260191</ele>
        <time>2014-12-12T15:14:50Z</time>
      </trkpt>
      <trkpt lat="45.41086" lon="5.88901">
        <ele>1045.558260191</ele>
        <time>2014-12-12T15:14:53Z</time>
      </trkpt>
      <trkpt lat="45.41091" lon="5.88895">
        <ele>1047.045731245</ele>
        <time>2014-12-12T15:14:57Z</time>
      </trkpt>
      <trkpt lat="45.41095" lon="5.88893">
        <ele>1047.045731245</ele>
        <time>2014-12-12T15:15:07Z</time>
      </trkpt>
      <trkpt lat="45.41096" lon="5.88891">
        <ele>1047.045731245</ele>
        <time>2014-12-12T15:15:22Z</time>
      </trkpt>
      <trkpt lat="45.41149" lon="5.88836">
        <ele>1044.77097621</ele>
        <time>2014-12-12T15:15:57Z</time>
      </trkpt>
      <trkpt lat="45.41153" lon="5.88831">
        <ele>1044.77097621</ele>
        <time>2014-12-12T15:16:05Z</time>
      </trkpt>
      <trkpt lat="45.41157" lon="5.88829">
        <ele>1042.30721993</ele>
        <time>2014-12-12T15:16:08Z</time>
      </trkpt>
      <trkpt lat="45.41161" lon="5.88826">
        <ele>1042.30721993</ele>
        <time>2014-12-12T15:16:14Z</time>
      </trkpt>
      <trkpt lat="45.41168" lon="5.88813">
        <ele>1039.363203823</ele>
        <time>2014-12-12T15:16:24Z</time>
      </trkpt>
      <trkpt lat="45.41172" lon="5.88804">
        <ele>1039.363203823</ele>
        <time>2014-12-12T15:16:29Z</time>
      </trkpt>
      <trkpt lat="45.41175" lon="5.88797">
        <ele>1037.111866702</ele>
        <time>2014-12-12T15:16:34Z</time>
      </trkpt>
      <trkpt lat="45.41178" lon="5.8878">
        <ele>1035.629606721</ele>
        <time>2014-12-12T15:16:39Z</time>
      </trkpt>
      <trkpt lat="45.41181" lon="5.88774">
        <ele>1035.629606721</ele>
        <time>2014-12-12T15:16:43Z</time>
      </trkpt>
      <trkpt lat="45.41183" lon="5.88764">
        <ele>1034.264864033</ele>
        <time>2014-12-12T15:16:51Z</time>
      </trkpt>
      <trkpt lat="45.41193" lon="5.88745">
        <ele>1032.846352934</ele>
        <time>2014-12-12T15:17:03Z</time>
      </trkpt>
      <trkpt lat="45.4125" lon="5.88685">
        <ele>1030.063032761</ele>
        <time>2014-12-12T15:17:57Z</time>
      </trkpt>
      <trkpt lat="45.41252" lon="5.88678">
        <ele>1030.063032761</ele>
        <time>2014-12-12T15:18:03Z</time>
      </trkpt>
      <trkpt lat="45.41255" lon="5.88671">
        <ele>1028.019065276</ele>
        <time>2014-12-12T15:18:07Z</time>
      </trkpt>
      <trkpt lat="45.41259" lon="5.88663">
        <ele>1028.019065276</ele>
        <time>2014-12-12T15:18:12Z</time>
      </trkpt>
      <trkpt lat="45.41259" lon="5.88654">
        <ele>1026.933062435</ele>
        <time>2014-12-12T15:18:24Z</time>
      </trkpt>
      <trkpt lat="45.41259" lon="5.88648">
        <ele>1026.933062435</ele>
        <time>2014-12-12T15:19:05Z</time>
      </trkpt>
      <trkpt lat="45.41262" lon="5.88645">
        <ele>1026.933062435</ele>
        <time>2014-12-12T15:19:17Z</time>
      </trkpt>
    </trkseg>
  </trk>
</gpx>